<?xml version="1.0" encoding="UTF-8" standalone="no" ?>
<gpx xmlns="http://www.topografix.com/GPX/1/1" xmlns:xsi="http://www.w3.org/2001/XMLSchema-instance" xsi:schemaLocation="http://www.topografix.com/GPX/1/1 http://www.topografix.com/GPX/1/1/gpx.xsd" version="1.1" creator="VisuGPX - https://www.visugpx.com">
  <metadata>
    <name>Rando les 3 Croix Roquebrune sur Argent version courte</name>
    <desc><![CDATA[8km 1000+?]]></desc>
  </metadata>
  <trk>
    <name><![CDATA[Rando les 3 Croix Roquebrune sur Argent version courte_1]]></name>
    <desc><![CDATA[Parti pour faire 5km, j'en ai fait 20... 🤣]]></desc>
    <trkseg>
      <trkpt lat="43.44923" lon="6.61841">
        <ele>-25</ele>
        <time>2025-03-26T11:52:12.000Z</time>
      </trkpt>
    </trkseg>
  </trk>
  <trk>
    <name><![CDATA[Rando les 3 Croix Roquebrune sur Argent version courte_2]]></name>
    <desc><![CDATA[Parti pour faire 5km, j'en ai fait 20... 🤣

Parti pour faire 5km, j'en ai fait 20... 🤣]]></desc>
    <trkseg>
      <trkpt lat="43.4492" lon="6.61852">
        <ele>13.2</ele>
        <time>2025-03-26T11:52:33.000Z</time>
      </trkpt>
      <trkpt lat="43.44873" lon="6.61774">
        <ele>-8.1999998092651</ele>
        <time>2025-03-26T11:53:32.000Z</time>
      </trkpt>
      <trkpt lat="43.4487" lon="6.61769">
        <ele>-7.5999999046326</ele>
        <time>2025-03-26T11:53:37.000Z</time>
      </trkpt>
      <trkpt lat="43.4487" lon="6.61769">
        <ele>-7.5999999046326</ele>
        <time>2025-03-26T11:53:38.000Z</time>
      </trkpt>
      <trkpt lat="43.44868" lon="6.61768">
        <ele>-7.5999999046326</ele>
        <time>2025-03-26T11:53:40.000Z</time>
      </trkpt>
      <trkpt lat="43.44867" lon="6.61767">
        <ele>-7.5999999046326</ele>
        <time>2025-03-26T11:53:41.000Z</time>
      </trkpt>
      <trkpt lat="43.44863" lon="6.61763">
        <ele>-8.1999998092651</ele>
        <time>2025-03-26T11:53:46.000Z</time>
      </trkpt>
      <trkpt lat="43.44863" lon="6.61762">
        <ele>-8.8000001907349</ele>
        <time>2025-03-26T11:53:47.000Z</time>
      </trkpt>
      <trkpt lat="43.44858" lon="6.6176">
        <ele>-9.8000001907349</ele>
        <time>2025-03-26T11:53:51.000Z</time>
      </trkpt>
      <trkpt lat="43.44857" lon="6.61758">
        <ele>-10</ele>
        <time>2025-03-26T11:53:52.000Z</time>
      </trkpt>
      <trkpt lat="43.44849" lon="6.61742">
        <ele>-10</ele>
        <time>2025-03-26T11:54:05.000Z</time>
      </trkpt>
      <trkpt lat="43.44844" lon="6.6174">
        <ele>-9.3999996185303</ele>
        <time>2025-03-26T11:54:10.000Z</time>
      </trkpt>
      <trkpt lat="43.44838" lon="6.61737">
        <ele>-8.8000001907349</ele>
        <time>2025-03-26T11:54:15.000Z</time>
      </trkpt>
      <trkpt lat="43.44835" lon="6.61735">
        <ele>-8.3999996185303</ele>
        <time>2025-03-26T11:54:19.000Z</time>
      </trkpt>
      <trkpt lat="43.44834" lon="6.61734">
        <ele>-8.1999998092651</ele>
        <time>2025-03-26T11:54:20.000Z</time>
      </trkpt>
      <trkpt lat="43.44833" lon="6.61733">
        <ele>-8.1999998092651</ele>
        <time>2025-03-26T11:54:21.000Z</time>
      </trkpt>
      <trkpt lat="43.44832" lon="6.61729">
        <ele>-7.8000001907349</ele>
        <time>2025-03-26T11:54:24.000Z</time>
      </trkpt>
      <trkpt lat="43.4483" lon="6.61727">
        <ele>-7.1999998092651</ele>
        <time>2025-03-26T11:54:26.000Z</time>
      </trkpt>
      <trkpt lat="43.44828" lon="6.61725">
        <ele>-6.5999999046326</ele>
        <time>2025-03-26T11:54:29.000Z</time>
      </trkpt>
      <trkpt lat="43.44823" lon="6.61711">
        <ele>-4.4000000953674</ele>
        <time>2025-03-26T11:54:41.000Z</time>
      </trkpt>
      <trkpt lat="43.44819" lon="6.61699">
        <ele>-2</ele>
        <time>2025-03-26T11:54:52.000Z</time>
      </trkpt>
      <trkpt lat="43.44819" lon="6.61691">
        <ele>-0.60000002384186</ele>
        <time>2025-03-26T11:54:58.000Z</time>
      </trkpt>
      <trkpt lat="43.44819" lon="6.6169">
        <ele>-0.40000000596046</ele>
        <time>2025-03-26T11:54:59.000Z</time>
      </trkpt>
      <trkpt lat="43.44818" lon="6.61685">
        <ele>0.80000001192093</ele>
        <time>2025-03-26T11:55:03.000Z</time>
      </trkpt>
      <trkpt lat="43.44815" lon="6.6168">
        <ele>1.6000000238419</ele>
        <time>2025-03-26T11:55:07.000Z</time>
      </trkpt>
      <trkpt lat="43.44812" lon="6.61672">
        <ele>41.5</ele>
        <time>2025-03-26T11:55:15.000Z</time>
      </trkpt>
      <trkpt lat="43.44808" lon="6.61667">
        <ele>3.4000000953674</ele>
        <time>2025-03-26T11:55:19.000Z</time>
      </trkpt>
      <trkpt lat="43.44807" lon="6.61663">
        <ele>4</ele>
        <time>2025-03-26T11:55:23.000Z</time>
      </trkpt>
      <trkpt lat="43.44804" lon="6.61658">
        <ele>4.4000000953674</ele>
        <time>2025-03-26T11:55:28.000Z</time>
      </trkpt>
      <trkpt lat="43.44803" lon="6.61656">
        <ele>5</ele>
        <time>2025-03-26T11:55:32.000Z</time>
      </trkpt>
      <trkpt lat="43.44803" lon="6.61656">
        <ele>5</ele>
        <time>2025-03-26T11:55:33.000Z</time>
      </trkpt>
      <trkpt lat="43.44803" lon="6.61655">
        <ele>5</ele>
        <time>2025-03-26T11:55:35.000Z</time>
      </trkpt>
      <trkpt lat="43.44802" lon="6.61653">
        <ele>6</ele>
        <time>2025-03-26T11:57:05.000Z</time>
      </trkpt>
      <trkpt lat="43.44802" lon="6.61653">
        <ele>6.5999999046326</ele>
        <time>2025-03-26T11:57:23.000Z</time>
      </trkpt>
      <trkpt lat="43.448" lon="6.61649">
        <ele>6.8000001907349</ele>
        <time>2025-03-26T11:57:28.000Z</time>
      </trkpt>
      <trkpt lat="43.448" lon="6.61644">
        <ele>7.4000000953674</ele>
        <time>2025-03-26T11:57:33.000Z</time>
      </trkpt>
      <trkpt lat="43.448" lon="6.61642">
        <ele>8</ele>
        <time>2025-03-26T11:57:35.000Z</time>
      </trkpt>
      <trkpt lat="43.448" lon="6.61639">
        <ele>8.3999996185303</ele>
        <time>2025-03-26T11:57:38.000Z</time>
      </trkpt>
      <trkpt lat="43.448" lon="6.61635">
        <ele>9</ele>
        <time>2025-03-26T11:57:42.000Z</time>
      </trkpt>
      <trkpt lat="43.448" lon="6.61626">
        <ele>11.199999809265</ele>
        <time>2025-03-26T11:57:53.000Z</time>
      </trkpt>
      <trkpt lat="43.44799" lon="6.61622">
        <ele>11.800000190735</ele>
        <time>2025-03-26T11:57:57.000Z</time>
      </trkpt>
      <trkpt lat="43.44799" lon="6.61604">
        <ele>14.800000190735</ele>
        <time>2025-03-26T11:58:13.000Z</time>
      </trkpt>
      <trkpt lat="43.44798" lon="6.616">
        <ele>15.199999809265</ele>
        <time>2025-03-26T11:58:16.000Z</time>
      </trkpt>
      <trkpt lat="43.44799" lon="6.61599">
        <ele>15.39999961853</ele>
        <time>2025-03-26T11:58:17.000Z</time>
      </trkpt>
      <trkpt lat="43.44799" lon="6.61598">
        <ele>15.800000190735</ele>
        <time>2025-03-26T11:58:19.000Z</time>
      </trkpt>
      <trkpt lat="43.44799" lon="6.6159">
        <ele>19.60000038147</ele>
        <time>2025-03-26T11:58:59.000Z</time>
      </trkpt>
      <trkpt lat="43.44801" lon="6.61578">
        <ele>20.799999237061</ele>
        <time>2025-03-26T11:59:05.000Z</time>
      </trkpt>
      <trkpt lat="43.44803" lon="6.61569">
        <ele>21.799999237061</ele>
        <time>2025-03-26T11:59:11.000Z</time>
      </trkpt>
      <trkpt lat="43.44804" lon="6.61568">
        <ele>22</ele>
        <time>2025-03-26T11:59:12.000Z</time>
      </trkpt>
      <trkpt lat="43.44802" lon="6.61559">
        <ele>22.799999237061</ele>
        <time>2025-03-26T11:59:21.000Z</time>
      </trkpt>
      <trkpt lat="43.448" lon="6.61552">
        <ele>25.60000038147</ele>
        <time>2025-03-26T11:59:28.000Z</time>
      </trkpt>
      <trkpt lat="43.44794" lon="6.61534">
        <ele>29</ele>
        <time>2025-03-26T11:59:44.000Z</time>
      </trkpt>
      <trkpt lat="43.44793" lon="6.61528">
        <ele>30</ele>
        <time>2025-03-26T11:59:49.000Z</time>
      </trkpt>
      <trkpt lat="43.44792" lon="6.61526">
        <ele>30.60000038147</ele>
        <time>2025-03-26T11:59:52.000Z</time>
      </trkpt>
      <trkpt lat="43.44793" lon="6.61517">
        <ele>67.3</ele>
      </trkpt>
      <trkpt lat="43.448" lon="6.61507">
        <ele>70.3</ele>
        <time>2025-03-26T11:59:59.000Z</time>
      </trkpt>
      <trkpt lat="43.44811" lon="6.61477">
        <ele>78</ele>
      </trkpt>
      <trkpt lat="43.44816" lon="6.61438">
        <ele>84.5</ele>
        <time>2025-03-26T12:02:03.000Z</time>
      </trkpt>
      <trkpt lat="43.44801" lon="6.61418">
        <ele>53</ele>
        <time>2025-03-26T12:02:07.000Z</time>
      </trkpt>
      <trkpt lat="43.44801" lon="6.61417">
        <ele>53.200000762939</ele>
        <time>2025-03-26T12:02:08.000Z</time>
      </trkpt>
      <trkpt lat="43.44797" lon="6.61411">
        <ele>54.200000762939</ele>
        <time>2025-03-26T12:02:15.000Z</time>
      </trkpt>
      <trkpt lat="43.44796" lon="6.6141">
        <ele>54.599998474121</ele>
        <time>2025-03-26T12:02:16.000Z</time>
      </trkpt>
      <trkpt lat="43.44793" lon="6.61405">
        <ele>55.799999237061</ele>
        <time>2025-03-26T12:02:22.000Z</time>
      </trkpt>
      <trkpt lat="43.44794" lon="6.61398">
        <ele>58</ele>
        <time>2025-03-26T12:02:32.000Z</time>
      </trkpt>
      <trkpt lat="43.44792" lon="6.61394">
        <ele>59.200000762939</ele>
        <time>2025-03-26T12:02:36.000Z</time>
      </trkpt>
      <trkpt lat="43.4479" lon="6.61393">
        <ele>95.3</ele>
        <time>2025-03-26T12:02:40.000Z</time>
      </trkpt>
      <trkpt lat="43.4478" lon="6.61386">
        <ele>98.9</ele>
        <time>2025-03-26T12:03:08.000Z</time>
      </trkpt>
      <trkpt lat="43.44777" lon="6.61366">
        <ele>103.2</ele>
        <time>2025-03-26T12:03:12.000Z</time>
      </trkpt>
      <trkpt lat="43.44771" lon="6.61351">
        <ele>105.9</ele>
        <time>2025-03-26T12:03:36.000Z</time>
      </trkpt>
      <trkpt lat="43.44769" lon="6.61346">
        <ele>70</ele>
        <time>2025-03-26T12:04:00.000Z</time>
      </trkpt>
      <trkpt lat="43.44769" lon="6.61346">
        <ele>70.199996948242</ele>
        <time>2025-03-26T12:04:09.000Z</time>
      </trkpt>
      <trkpt lat="43.44767" lon="6.61343">
        <ele>70.199996948242</ele>
        <time>2025-03-26T12:04:19.000Z</time>
      </trkpt>
      <trkpt lat="43.44766" lon="6.6134">
        <ele>69.599998474121</ele>
        <time>2025-03-26T12:04:21.000Z</time>
      </trkpt>
      <trkpt lat="43.44765" lon="6.61337">
        <ele>69</ele>
        <time>2025-03-26T12:04:22.000Z</time>
      </trkpt>
      <trkpt lat="43.44756" lon="6.61312">
        <ele>112.3</ele>
        <time>2025-03-26T12:04:46.000Z</time>
      </trkpt>
      <trkpt lat="43.44753" lon="6.61307">
        <ele>111.9</ele>
        <time>2025-03-26T12:04:59.000Z</time>
      </trkpt>
      <trkpt lat="43.4475" lon="6.61297">
        <ele>110.8</ele>
        <time>2025-03-26T12:05:08.000Z</time>
      </trkpt>
      <trkpt lat="43.44737" lon="6.61291">
        <ele>117.4</ele>
        <time>2025-03-26T12:05:36.000Z</time>
      </trkpt>
      <trkpt lat="43.44725" lon="6.61308">
        <ele>93</ele>
        <time>2025-03-26T12:07:10.000Z</time>
      </trkpt>
      <trkpt lat="43.44723" lon="6.61305">
        <ele>94.199996948242</ele>
        <time>2025-03-26T12:07:17.000Z</time>
      </trkpt>
      <trkpt lat="43.44721" lon="6.61304">
        <ele>95.199996948242</ele>
        <time>2025-03-26T12:07:20.000Z</time>
      </trkpt>
      <trkpt lat="43.4472" lon="6.61301">
        <ele>97</ele>
        <time>2025-03-26T12:07:25.000Z</time>
      </trkpt>
      <trkpt lat="43.44716" lon="6.61297">
        <ele>98</ele>
        <time>2025-03-26T12:07:29.000Z</time>
      </trkpt>
      <trkpt lat="43.44714" lon="6.61295">
        <ele>98.400001525879</ele>
        <time>2025-03-26T12:07:31.000Z</time>
      </trkpt>
      <trkpt lat="43.4471" lon="6.61291">
        <ele>134.2</ele>
      </trkpt>
      <trkpt lat="43.44702" lon="6.6129">
        <ele>103.59999847412</ele>
        <time>2025-03-26T12:07:57.000Z</time>
      </trkpt>
      <trkpt lat="43.44702" lon="6.6129">
        <ele>103.59999847412</ele>
        <time>2025-03-26T12:07:59.000Z</time>
      </trkpt>
      <trkpt lat="43.44702" lon="6.6129">
        <ele>103.40000152588</ele>
        <time>2025-03-26T12:08:05.000Z</time>
      </trkpt>
      <trkpt lat="43.447" lon="6.61292">
        <ele>103.40000152588</ele>
        <time>2025-03-26T12:08:14.000Z</time>
      </trkpt>
      <trkpt lat="43.44696" lon="6.61293">
        <ele>104.40000152588</ele>
        <time>2025-03-26T12:08:20.000Z</time>
      </trkpt>
      <trkpt lat="43.44693" lon="6.61292">
        <ele>105.40000152588</ele>
        <time>2025-03-26T12:08:24.000Z</time>
      </trkpt>
      <trkpt lat="43.4469" lon="6.61294">
        <ele>106</ele>
        <time>2025-03-26T12:08:29.000Z</time>
      </trkpt>
      <trkpt lat="43.44687" lon="6.61295">
        <ele>106.19999694824</ele>
        <time>2025-03-26T12:08:33.000Z</time>
      </trkpt>
      <trkpt lat="43.44679" lon="6.61291">
        <ele>145</ele>
        <time>2025-03-26T12:08:51.000Z</time>
      </trkpt>
      <trkpt lat="43.44679" lon="6.61287">
        <ele>110.59999847412</ele>
        <time>2025-03-26T12:10:23.000Z</time>
      </trkpt>
      <trkpt lat="43.44676" lon="6.61282">
        <ele>149.2</ele>
        <time>2025-03-26T12:10:41.000Z</time>
      </trkpt>
      <trkpt lat="43.44671" lon="6.61257">
        <ele>148.7</ele>
      </trkpt>
      <trkpt lat="43.44673" lon="6.61247">
        <ele>148.2</ele>
        <time>2025-03-26T12:11:43.000Z</time>
      </trkpt>
      <trkpt lat="43.44676" lon="6.61243">
        <ele>106</ele>
        <time>2025-03-26T12:11:46.000Z</time>
      </trkpt>
      <trkpt lat="43.44677" lon="6.61241">
        <ele>106.59999847412</ele>
        <time>2025-03-26T12:11:49.000Z</time>
      </trkpt>
      <trkpt lat="43.44678" lon="6.6124">
        <ele>107</ele>
        <time>2025-03-26T12:11:50.000Z</time>
      </trkpt>
      <trkpt lat="43.44686" lon="6.61233">
        <ele>151.9</ele>
        <time>2025-03-26T12:12:12.000Z</time>
      </trkpt>
      <trkpt lat="43.44686" lon="6.61222">
        <ele>113.59999847412</ele>
        <time>2025-03-26T12:12:34.000Z</time>
      </trkpt>
      <trkpt lat="43.44687" lon="6.61219">
        <ele>114</ele>
        <time>2025-03-26T12:12:39.000Z</time>
      </trkpt>
      <trkpt lat="43.44687" lon="6.61218">
        <ele>114.40000152588</ele>
        <time>2025-03-26T12:12:41.000Z</time>
      </trkpt>
      <trkpt lat="43.44686" lon="6.61217">
        <ele>115.40000152588</ele>
        <time>2025-03-26T12:12:46.000Z</time>
      </trkpt>
      <trkpt lat="43.44685" lon="6.61216">
        <ele>115.59999847412</ele>
        <time>2025-03-26T12:12:47.000Z</time>
      </trkpt>
      <trkpt lat="43.4468" lon="6.61208">
        <ele>119.40000152588</ele>
        <time>2025-03-26T12:12:58.000Z</time>
      </trkpt>
      <trkpt lat="43.44678" lon="6.61204">
        <ele>120.40000152588</ele>
        <time>2025-03-26T12:13:02.000Z</time>
      </trkpt>
      <trkpt lat="43.44678" lon="6.61202">
        <ele>121</ele>
        <time>2025-03-26T12:13:04.000Z</time>
      </trkpt>
      <trkpt lat="43.44675" lon="6.61178">
        <ele>170.3</ele>
        <time>2025-03-26T12:13:39.000Z</time>
      </trkpt>
      <trkpt lat="43.44669" lon="6.6117">
        <ele>173</ele>
        <time>2025-03-26T12:13:48.000Z</time>
      </trkpt>
      <trkpt lat="43.4466" lon="6.61124">
        <ele>176.9</ele>
        <time>2025-03-26T12:14:20.000Z</time>
      </trkpt>
      <trkpt lat="43.44667" lon="6.61113">
        <ele>181.7</ele>
        <time>2025-03-26T12:14:35.000Z</time>
      </trkpt>
      <trkpt lat="43.44674" lon="6.61104">
        <ele>183.2</ele>
        <time>2025-03-26T12:14:58.000Z</time>
      </trkpt>
      <trkpt lat="43.44677" lon="6.61098">
        <ele>139.19999694824</ele>
        <time>2025-03-26T12:15:07.000Z</time>
      </trkpt>
      <trkpt lat="43.44672" lon="6.61074">
        <ele>143.80000305176</ele>
        <time>2025-03-26T12:15:36.000Z</time>
      </trkpt>
      <trkpt lat="43.44668" lon="6.61068">
        <ele>190.5</ele>
        <time>2025-03-26T12:15:45.000Z</time>
      </trkpt>
      <trkpt lat="43.4466" lon="6.61056">
        <ele>189.5</ele>
        <time>2025-03-26T12:15:52.000Z</time>
      </trkpt>
      <trkpt lat="43.4466" lon="6.61046">
        <ele>192.7</ele>
        <time>2025-03-26T12:15:59.000Z</time>
      </trkpt>
      <trkpt lat="43.4467" lon="6.61037">
        <ele>195.6</ele>
        <time>2025-03-26T12:16:24.000Z</time>
      </trkpt>
      <trkpt lat="43.44665" lon="6.61026">
        <ele>153.60000610352</ele>
        <time>2025-03-26T12:16:41.000Z</time>
      </trkpt>
      <trkpt lat="43.44663" lon="6.61023">
        <ele>155.19999694824</ele>
        <time>2025-03-26T12:16:46.000Z</time>
      </trkpt>
      <trkpt lat="43.44661" lon="6.61018">
        <ele>158.80000305176</ele>
        <time>2025-03-26T12:16:56.000Z</time>
      </trkpt>
      <trkpt lat="43.44659" lon="6.61016">
        <ele>161</ele>
        <time>2025-03-26T12:17:01.000Z</time>
      </trkpt>
      <trkpt lat="43.44652" lon="6.61004">
        <ele>165</ele>
        <time>2025-03-26T12:17:17.000Z</time>
      </trkpt>
      <trkpt lat="43.44648" lon="6.61">
        <ele>165</ele>
        <time>2025-03-26T12:17:25.000Z</time>
      </trkpt>
      <trkpt lat="43.44647" lon="6.60998">
        <ele>165.19999694824</ele>
        <time>2025-03-26T12:17:31.000Z</time>
      </trkpt>
      <trkpt lat="43.4464" lon="6.60989">
        <ele>170</ele>
        <time>2025-03-26T12:18:08.000Z</time>
      </trkpt>
      <trkpt lat="43.44636" lon="6.60982">
        <ele>170.60000610352</ele>
        <time>2025-03-26T12:18:21.000Z</time>
      </trkpt>
      <trkpt lat="43.44635" lon="6.60981">
        <ele>170.80000305176</ele>
        <time>2025-03-26T12:18:24.000Z</time>
      </trkpt>
      <trkpt lat="43.44634" lon="6.60979">
        <ele>171</ele>
        <time>2025-03-26T12:18:27.000Z</time>
      </trkpt>
      <trkpt lat="43.44633" lon="6.60977">
        <ele>172.19999694824</ele>
        <time>2025-03-26T12:18:39.000Z</time>
      </trkpt>
      <trkpt lat="43.44633" lon="6.60977">
        <ele>173.19999694824</ele>
        <time>2025-03-26T12:18:45.000Z</time>
      </trkpt>
      <trkpt lat="43.44632" lon="6.60974">
        <ele>174.39999389648</ele>
        <time>2025-03-26T12:18:50.000Z</time>
      </trkpt>
      <trkpt lat="43.44625" lon="6.60971">
        <ele>232.8</ele>
      </trkpt>
      <trkpt lat="43.44615" lon="6.60939">
        <ele>172.39999389648</ele>
        <time>2025-03-26T12:22:33.000Z</time>
      </trkpt>
      <trkpt lat="43.44613" lon="6.60926">
        <ele>169.19999694824</ele>
        <time>2025-03-26T12:22:44.000Z</time>
      </trkpt>
      <trkpt lat="43.44614" lon="6.60925">
        <ele>169</ele>
        <time>2025-03-26T12:22:45.000Z</time>
      </trkpt>
      <trkpt lat="43.44614" lon="6.60924">
        <ele>169</ele>
        <time>2025-03-26T12:22:47.000Z</time>
      </trkpt>
      <trkpt lat="43.44613" lon="6.60917">
        <ele>169.60000610352</ele>
        <time>2025-03-26T12:22:53.000Z</time>
      </trkpt>
      <trkpt lat="43.44611" lon="6.60907">
        <ele>170.80000305176</ele>
        <time>2025-03-26T12:23:11.000Z</time>
      </trkpt>
      <trkpt lat="43.44609" lon="6.60901">
        <ele>219.1</ele>
        <time>2025-03-26T12:23:23.000Z</time>
      </trkpt>
      <trkpt lat="43.44613" lon="6.60889">
        <ele>172.39999389648</ele>
        <time>2025-03-26T12:23:33.000Z</time>
      </trkpt>
      <trkpt lat="43.44627" lon="6.60879">
        <ele>225.4</ele>
        <time>2025-03-26T12:23:57.000Z</time>
      </trkpt>
      <trkpt lat="43.44632" lon="6.6088">
        <ele>228.3</ele>
        <time>2025-03-26T12:24:03.000Z</time>
      </trkpt>
      <trkpt lat="43.44639" lon="6.60884">
        <ele>174.80000305176</ele>
        <time>2025-03-26T12:24:14.000Z</time>
      </trkpt>
      <trkpt lat="43.4464" lon="6.60883">
        <ele>175.39999389648</ele>
        <time>2025-03-26T12:24:17.000Z</time>
      </trkpt>
      <trkpt lat="43.44642" lon="6.60884">
        <ele>176</ele>
        <time>2025-03-26T12:24:20.000Z</time>
      </trkpt>
      <trkpt lat="43.44644" lon="6.60885">
        <ele>177.19999694824</ele>
        <time>2025-03-26T12:24:24.000Z</time>
      </trkpt>
      <trkpt lat="43.44655" lon="6.60881">
        <ele>185.39999389648</ele>
        <time>2025-03-26T12:24:59.000Z</time>
      </trkpt>
      <trkpt lat="43.44655" lon="6.6088">
        <ele>185.80000305176</ele>
        <time>2025-03-26T12:25:03.000Z</time>
      </trkpt>
      <trkpt lat="43.44655" lon="6.6088">
        <ele>186</ele>
        <time>2025-03-26T12:25:04.000Z</time>
      </trkpt>
      <trkpt lat="43.44655" lon="6.6088">
        <ele>186</ele>
        <time>2025-03-26T12:25:05.000Z</time>
      </trkpt>
      <trkpt lat="43.44657" lon="6.6088">
        <ele>186.39999389648</ele>
        <time>2025-03-26T12:25:09.000Z</time>
      </trkpt>
      <trkpt lat="43.44659" lon="6.60879">
        <ele>186.39999389648</ele>
        <time>2025-03-26T12:25:12.000Z</time>
      </trkpt>
      <trkpt lat="43.4466" lon="6.60877">
        <ele>187.60000610352</ele>
        <time>2025-03-26T12:25:16.000Z</time>
      </trkpt>
      <trkpt lat="43.44662" lon="6.60877">
        <ele>188</ele>
        <time>2025-03-26T12:25:18.000Z</time>
      </trkpt>
      <trkpt lat="43.44664" lon="6.60872">
        <ele>188.60000610352</ele>
        <time>2025-03-26T12:25:24.000Z</time>
      </trkpt>
      <trkpt lat="43.44667" lon="6.60868">
        <ele>189</ele>
        <time>2025-03-26T12:25:31.000Z</time>
      </trkpt>
      <trkpt lat="43.44667" lon="6.60867">
        <ele>189.19999694824</ele>
        <time>2025-03-26T12:25:32.000Z</time>
      </trkpt>
      <trkpt lat="43.44668" lon="6.60866">
        <ele>189.19999694824</ele>
        <time>2025-03-26T12:25:36.000Z</time>
      </trkpt>
      <trkpt lat="43.44674" lon="6.60858">
        <ele>196.60000610352</ele>
        <time>2025-03-26T12:26:02.000Z</time>
      </trkpt>
      <trkpt lat="43.44675" lon="6.60856">
        <ele>197.19999694824</ele>
        <time>2025-03-26T12:26:04.000Z</time>
      </trkpt>
      <trkpt lat="43.44674" lon="6.60853">
        <ele>198.60000610352</ele>
        <time>2025-03-26T12:26:06.000Z</time>
      </trkpt>
      <trkpt lat="43.44682" lon="6.60852">
        <ele>201.39999389648</ele>
        <time>2025-03-26T12:26:19.000Z</time>
      </trkpt>
      <trkpt lat="43.44687" lon="6.60849">
        <ele>203.19999694824</ele>
        <time>2025-03-26T12:26:29.000Z</time>
      </trkpt>
      <trkpt lat="43.44687" lon="6.60845">
        <ele>203.60000610352</ele>
        <time>2025-03-26T12:26:49.000Z</time>
      </trkpt>
      <trkpt lat="43.44686" lon="6.60842">
        <ele>205.39999389648</ele>
        <time>2025-03-26T12:27:04.000Z</time>
      </trkpt>
      <trkpt lat="43.44686" lon="6.60838">
        <ele>205.39999389648</ele>
        <time>2025-03-26T12:27:06.000Z</time>
      </trkpt>
      <trkpt lat="43.44686" lon="6.60829">
        <ele>206.39999389648</ele>
        <time>2025-03-26T12:27:14.000Z</time>
      </trkpt>
      <trkpt lat="43.44686" lon="6.60829">
        <ele>206.39999389648</ele>
        <time>2025-03-26T12:27:15.000Z</time>
      </trkpt>
      <trkpt lat="43.44685" lon="6.60828">
        <ele>206.60000610352</ele>
        <time>2025-03-26T12:27:18.000Z</time>
      </trkpt>
      <trkpt lat="43.44684" lon="6.60824">
        <ele>207.60000610352</ele>
        <time>2025-03-26T12:27:22.000Z</time>
      </trkpt>
      <trkpt lat="43.44684" lon="6.60822">
        <ele>209.19999694824</ele>
        <time>2025-03-26T12:27:31.000Z</time>
      </trkpt>
      <trkpt lat="43.44685" lon="6.60815">
        <ele>213.60000610352</ele>
        <time>2025-03-26T12:27:50.000Z</time>
      </trkpt>
      <trkpt lat="43.44685" lon="6.60814">
        <ele>213.80000305176</ele>
        <time>2025-03-26T12:27:51.000Z</time>
      </trkpt>
      <trkpt lat="43.44687" lon="6.60811">
        <ele>214.60000610352</ele>
        <time>2025-03-26T12:27:54.000Z</time>
      </trkpt>
      <trkpt lat="43.44689" lon="6.60806">
        <ele>264.4</ele>
        <time>2025-03-26T12:28:00.000Z</time>
      </trkpt>
      <trkpt lat="43.44695" lon="6.608">
        <ele>216</ele>
        <time>2025-03-26T12:28:06.000Z</time>
      </trkpt>
      <trkpt lat="43.44704" lon="6.60791">
        <ele>216</ele>
        <time>2025-03-26T12:28:14.000Z</time>
      </trkpt>
      <trkpt lat="43.44711" lon="6.60771">
        <ele>216</ele>
        <time>2025-03-26T12:28:31.000Z</time>
      </trkpt>
      <trkpt lat="43.44712" lon="6.60769">
        <ele>216.19999694824</ele>
        <time>2025-03-26T12:28:33.000Z</time>
      </trkpt>
      <trkpt lat="43.44713" lon="6.60759">
        <ele>217.60000610352</ele>
        <time>2025-03-26T12:28:46.000Z</time>
      </trkpt>
      <trkpt lat="43.44713" lon="6.60757">
        <ele>218</ele>
        <time>2025-03-26T12:28:48.000Z</time>
      </trkpt>
      <trkpt lat="43.44715" lon="6.60749">
        <ele>218.60000610352</ele>
        <time>2025-03-26T12:28:54.000Z</time>
      </trkpt>
      <trkpt lat="43.44715" lon="6.60747">
        <ele>218.80000305176</ele>
        <time>2025-03-26T12:28:56.000Z</time>
      </trkpt>
      <trkpt lat="43.44716" lon="6.60745">
        <ele>219</ele>
        <time>2025-03-26T12:28:59.000Z</time>
      </trkpt>
      <trkpt lat="43.44717" lon="6.60744">
        <ele>218.60000610352</ele>
        <time>2025-03-26T12:29:00.000Z</time>
      </trkpt>
      <trkpt lat="43.44719" lon="6.6074">
        <ele>219.39999389648</ele>
        <time>2025-03-26T12:29:04.000Z</time>
      </trkpt>
      <trkpt lat="43.44719" lon="6.60737">
        <ele>220</ele>
        <time>2025-03-26T12:29:06.000Z</time>
      </trkpt>
      <trkpt lat="43.44719" lon="6.60735">
        <ele>220.19999694824</ele>
        <time>2025-03-26T12:29:07.000Z</time>
      </trkpt>
      <trkpt lat="43.44724" lon="6.60726">
        <ele>220.39999389648</ele>
        <time>2025-03-26T12:29:15.000Z</time>
      </trkpt>
      <trkpt lat="43.4472" lon="6.6071">
        <ele>223.80000305176</ele>
        <time>2025-03-26T12:29:30.000Z</time>
      </trkpt>
      <trkpt lat="43.44718" lon="6.60705">
        <ele>224.60000610352</ele>
        <time>2025-03-26T12:29:33.000Z</time>
      </trkpt>
      <trkpt lat="43.44717" lon="6.60699">
        <ele>225.19999694824</ele>
        <time>2025-03-26T12:29:38.000Z</time>
      </trkpt>
      <trkpt lat="43.44714" lon="6.60688">
        <ele>226</ele>
        <time>2025-03-26T12:29:46.000Z</time>
      </trkpt>
      <trkpt lat="43.44729" lon="6.60663">
        <ele>230</ele>
        <time>2025-03-26T12:30:14.000Z</time>
      </trkpt>
      <trkpt lat="43.44729" lon="6.60661">
        <ele>230.19999694824</ele>
        <time>2025-03-26T12:30:16.000Z</time>
      </trkpt>
      <trkpt lat="43.44731" lon="6.60659">
        <ele>230.39999389648</ele>
        <time>2025-03-26T12:30:18.000Z</time>
      </trkpt>
      <trkpt lat="43.44731" lon="6.60658">
        <ele>230.39999389648</ele>
        <time>2025-03-26T12:30:19.000Z</time>
      </trkpt>
      <trkpt lat="43.44735" lon="6.60646">
        <ele>234.39999389648</ele>
        <time>2025-03-26T12:30:52.000Z</time>
      </trkpt>
      <trkpt lat="43.44737" lon="6.60644">
        <ele>234</ele>
        <time>2025-03-26T12:30:58.000Z</time>
      </trkpt>
      <trkpt lat="43.44741" lon="6.60641">
        <ele>272.2</ele>
        <time>2025-03-26T12:31:04.000Z</time>
      </trkpt>
      <trkpt lat="43.44737" lon="6.60627">
        <ele>243.19999694824</ele>
        <time>2025-03-26T12:31:47.000Z</time>
      </trkpt>
      <trkpt lat="43.44735" lon="6.60624">
        <ele>275.2</ele>
        <time>2025-03-26T12:31:54.000Z</time>
      </trkpt>
      <trkpt lat="43.44739" lon="6.60618">
        <ele>241.60000610352</ele>
        <time>2025-03-26T12:32:10.000Z</time>
      </trkpt>
      <trkpt lat="43.44739" lon="6.60618">
        <ele>241.60000610352</ele>
        <time>2025-03-26T12:32:12.000Z</time>
      </trkpt>
      <trkpt lat="43.44741" lon="6.60614">
        <ele>275.7</ele>
        <time>2025-03-26T12:32:42.000Z</time>
      </trkpt>
      <trkpt lat="43.44741" lon="6.60602">
        <ele>276.9</ele>
      </trkpt>
      <trkpt lat="43.44744" lon="6.60598">
        <ele>277.3</ele>
      </trkpt>
      <trkpt lat="43.44746" lon="6.60589">
        <ele>235</ele>
        <time>2025-03-26T12:37:59.000Z</time>
      </trkpt>
      <trkpt lat="43.44749" lon="6.60584">
        <ele>234.19999694824</ele>
        <time>2025-03-26T12:38:06.000Z</time>
      </trkpt>
      <trkpt lat="43.44749" lon="6.60583">
        <ele>234</ele>
        <time>2025-03-26T12:38:08.000Z</time>
      </trkpt>
      <trkpt lat="43.44748" lon="6.60582">
        <ele>233.80000305176</ele>
        <time>2025-03-26T12:38:14.000Z</time>
      </trkpt>
      <trkpt lat="43.44749" lon="6.6058">
        <ele>234</ele>
        <time>2025-03-26T12:38:19.000Z</time>
      </trkpt>
      <trkpt lat="43.44749" lon="6.60579">
        <ele>233.39999389648</ele>
        <time>2025-03-26T12:38:30.000Z</time>
      </trkpt>
      <trkpt lat="43.4475" lon="6.60578">
        <ele>235</ele>
        <time>2025-03-26T12:38:51.000Z</time>
      </trkpt>
      <trkpt lat="43.44751" lon="6.60578">
        <ele>235.39999389648</ele>
        <time>2025-03-26T12:38:53.000Z</time>
      </trkpt>
      <trkpt lat="43.44751" lon="6.60574">
        <ele>236</ele>
        <time>2025-03-26T12:39:07.000Z</time>
      </trkpt>
      <trkpt lat="43.44752" lon="6.60573">
        <ele>237.19999694824</ele>
        <time>2025-03-26T12:39:15.000Z</time>
      </trkpt>
      <trkpt lat="43.44753" lon="6.60571">
        <ele>238.19999694824</ele>
        <time>2025-03-26T12:39:26.000Z</time>
      </trkpt>
      <trkpt lat="43.44752" lon="6.60567">
        <ele>238</ele>
        <time>2025-03-26T12:39:49.000Z</time>
      </trkpt>
      <trkpt lat="43.44752" lon="6.60569">
        <ele>239.19999694824</ele>
        <time>2025-03-26T12:40:14.000Z</time>
      </trkpt>
      <trkpt lat="43.44752" lon="6.60569">
        <ele>239.19999694824</ele>
        <time>2025-03-26T12:40:15.000Z</time>
      </trkpt>
      <trkpt lat="43.44753" lon="6.60563">
        <ele>239.39999389648</ele>
        <time>2025-03-26T12:40:22.000Z</time>
      </trkpt>
      <trkpt lat="43.44753" lon="6.60557">
        <ele>239.60000610352</ele>
        <time>2025-03-26T12:40:28.000Z</time>
      </trkpt>
      <trkpt lat="43.44753" lon="6.60555">
        <ele>238</ele>
        <time>2025-03-26T12:40:39.000Z</time>
      </trkpt>
      <trkpt lat="43.44749" lon="6.60552">
        <ele>290.2</ele>
        <time>2025-03-26T12:41:05.000Z</time>
      </trkpt>
      <trkpt lat="43.44741" lon="6.60542">
        <ele>287.7</ele>
        <time>2025-03-26T12:41:18.000Z</time>
      </trkpt>
      <trkpt lat="43.44748" lon="6.60534">
        <ele>240.80000305176</ele>
        <time>2025-03-26T12:41:24.000Z</time>
      </trkpt>
      <trkpt lat="43.44748" lon="6.60534">
        <ele>241.39999389648</ele>
        <time>2025-03-26T12:41:26.000Z</time>
      </trkpt>
      <trkpt lat="43.44749" lon="6.60534">
        <ele>242.39999389648</ele>
        <time>2025-03-26T12:41:29.000Z</time>
      </trkpt>
      <trkpt lat="43.4475" lon="6.60533">
        <ele>243.39999389648</ele>
        <time>2025-03-26T12:41:32.000Z</time>
      </trkpt>
      <trkpt lat="43.44751" lon="6.60531">
        <ele>244.39999389648</ele>
        <time>2025-03-26T12:41:38.000Z</time>
      </trkpt>
      <trkpt lat="43.44753" lon="6.60531">
        <ele>290.8</ele>
        <time>2025-03-26T12:41:43.000Z</time>
      </trkpt>
      <trkpt lat="43.44755" lon="6.60501">
        <ele>294</ele>
      </trkpt>
      <trkpt lat="43.44745" lon="6.60488">
        <ele>238.60000610352</ele>
        <time>2025-03-26T12:44:24.000Z</time>
      </trkpt>
      <trkpt lat="43.44745" lon="6.60485">
        <ele>239</ele>
        <time>2025-03-26T12:44:26.000Z</time>
      </trkpt>
      <trkpt lat="43.44743" lon="6.60481">
        <ele>238.19999694824</ele>
        <time>2025-03-26T12:44:32.000Z</time>
      </trkpt>
      <trkpt lat="43.44743" lon="6.60481">
        <ele>237.80000305176</ele>
        <time>2025-03-26T12:44:35.000Z</time>
      </trkpt>
      <trkpt lat="43.44741" lon="6.60476">
        <ele>236.60000610352</ele>
        <time>2025-03-26T12:44:39.000Z</time>
      </trkpt>
      <trkpt lat="43.4474" lon="6.60472">
        <ele>235.60000610352</ele>
        <time>2025-03-26T12:44:45.000Z</time>
      </trkpt>
      <trkpt lat="43.4474" lon="6.60467">
        <ele>292.7</ele>
        <time>2025-03-26T12:44:51.000Z</time>
      </trkpt>
      <trkpt lat="43.44737" lon="6.60455">
        <ele>237.80000305176</ele>
        <time>2025-03-26T12:45:25.000Z</time>
      </trkpt>
      <trkpt lat="43.44733" lon="6.60449">
        <ele>291</ele>
        <time>2025-03-26T12:45:41.000Z</time>
      </trkpt>
      <trkpt lat="43.44732" lon="6.60444">
        <ele>234.80000305176</ele>
        <time>2025-03-26T12:45:55.000Z</time>
      </trkpt>
      <trkpt lat="43.44732" lon="6.60444">
        <ele>234.60000610352</ele>
        <time>2025-03-26T12:45:57.000Z</time>
      </trkpt>
      <trkpt lat="43.44732" lon="6.60439">
        <ele>290.3</ele>
      </trkpt>
      <trkpt lat="43.44728" lon="6.6043">
        <ele>227.60000610352</ele>
        <time>2025-03-26T12:46:38.000Z</time>
      </trkpt>
      <trkpt lat="43.44724" lon="6.60428">
        <ele>279</ele>
        <time>2025-03-26T12:46:48.000Z</time>
      </trkpt>
      <trkpt lat="43.44729" lon="6.60422">
        <ele>231.19999694824</ele>
        <time>2025-03-26T12:47:07.000Z</time>
      </trkpt>
      <trkpt lat="43.4473" lon="6.60422">
        <ele>231.19999694824</ele>
        <time>2025-03-26T12:47:09.000Z</time>
      </trkpt>
      <trkpt lat="43.44729" lon="6.60422">
        <ele>231.39999389648</ele>
        <time>2025-03-26T12:47:10.000Z</time>
      </trkpt>
      <trkpt lat="43.4473" lon="6.60422">
        <ele>232.19999694824</ele>
        <time>2025-03-26T12:47:15.000Z</time>
      </trkpt>
      <trkpt lat="43.4473" lon="6.60419">
        <ele>236</ele>
        <time>2025-03-26T12:47:43.000Z</time>
      </trkpt>
      <trkpt lat="43.4473" lon="6.60411">
        <ele>284.7</ele>
      </trkpt>
      <trkpt lat="43.44733" lon="6.60402">
        <ele>235.39999389648</ele>
        <time>2025-03-26T12:48:20.000Z</time>
      </trkpt>
      <trkpt lat="43.44736" lon="6.60401">
        <ele>237</ele>
        <time>2025-03-26T12:48:28.000Z</time>
      </trkpt>
      <trkpt lat="43.44742" lon="6.60396">
        <ele>289.8</ele>
      </trkpt>
      <trkpt lat="43.44754" lon="6.60397">
        <ele>251.19999694824</ele>
        <time>2025-03-26T12:50:07.000Z</time>
      </trkpt>
      <trkpt lat="43.44755" lon="6.60394">
        <ele>251.60000610352</ele>
        <time>2025-03-26T12:50:12.000Z</time>
      </trkpt>
      <trkpt lat="43.44763" lon="6.60393">
        <ele>252.80000305176</ele>
        <time>2025-03-26T12:50:41.000Z</time>
      </trkpt>
      <trkpt lat="43.44763" lon="6.60393">
        <ele>253</ele>
        <time>2025-03-26T12:50:42.000Z</time>
      </trkpt>
      <trkpt lat="43.44764" lon="6.60392">
        <ele>305.5</ele>
        <time>2025-03-26T12:51:01.000Z</time>
      </trkpt>
      <trkpt lat="43.4477" lon="6.604">
        <ele>312.9</ele>
      </trkpt>
      <trkpt lat="43.44776" lon="6.60401">
        <ele>261</ele>
        <time>2025-03-26T12:51:22.000Z</time>
      </trkpt>
      <trkpt lat="43.44783" lon="6.60405">
        <ele>263.60000610352</ele>
        <time>2025-03-26T12:51:47.000Z</time>
      </trkpt>
      <trkpt lat="43.44786" lon="6.60405">
        <ele>265</ele>
        <time>2025-03-26T12:51:52.000Z</time>
      </trkpt>
      <trkpt lat="43.44795" lon="6.60408">
        <ele>276.20001220703</ele>
        <time>2025-03-26T12:53:22.000Z</time>
      </trkpt>
      <trkpt lat="43.44797" lon="6.60408">
        <ele>337.4</ele>
        <time>2025-03-26T12:53:27.000Z</time>
      </trkpt>
      <trkpt lat="43.44806" lon="6.6041">
        <ele>277.60000610352</ele>
        <time>2025-03-26T12:53:45.000Z</time>
      </trkpt>
      <trkpt lat="43.44811" lon="6.6041">
        <ele>344.2</ele>
        <time>2025-03-26T12:54:17.000Z</time>
      </trkpt>
      <trkpt lat="43.4482" lon="6.60414">
        <ele>341.6</ele>
      </trkpt>
      <trkpt lat="43.44819" lon="6.60409">
        <ele>298.60000610352</ele>
        <time>2025-03-26T12:55:14.000Z</time>
      </trkpt>
      <trkpt lat="43.44818" lon="6.60402">
        <ele>300.79998779297</ele>
        <time>2025-03-26T12:55:30.000Z</time>
      </trkpt>
      <trkpt lat="43.4482" lon="6.60397">
        <ele>299.20001220703</ele>
        <time>2025-03-26T12:55:37.000Z</time>
      </trkpt>
      <trkpt lat="43.4482" lon="6.60396">
        <ele>298.79998779297</ele>
        <time>2025-03-26T12:55:38.000Z</time>
      </trkpt>
      <trkpt lat="43.4482" lon="6.60397">
        <ele>298</ele>
        <time>2025-03-26T12:55:39.000Z</time>
      </trkpt>
      <trkpt lat="43.44821" lon="6.60396">
        <ele>297</ele>
        <time>2025-03-26T12:55:42.000Z</time>
      </trkpt>
      <trkpt lat="43.44822" lon="6.60396">
        <ele>296.79998779297</ele>
        <time>2025-03-26T12:55:43.000Z</time>
      </trkpt>
      <trkpt lat="43.44821" lon="6.60395">
        <ele>296.79998779297</ele>
        <time>2025-03-26T12:55:48.000Z</time>
      </trkpt>
      <trkpt lat="43.44822" lon="6.60389">
        <ele>298</ele>
        <time>2025-03-26T12:56:34.000Z</time>
      </trkpt>
      <trkpt lat="43.44826" lon="6.60384">
        <ele>352.7</ele>
      </trkpt>
      <trkpt lat="43.44827" lon="6.60374">
        <ele>300.39999389648</ele>
        <time>2025-03-26T12:58:33.000Z</time>
      </trkpt>
      <trkpt lat="43.44826" lon="6.60374">
        <ele>300.79998779297</ele>
        <time>2025-03-26T12:58:37.000Z</time>
      </trkpt>
      <trkpt lat="43.44832" lon="6.60374">
        <ele>295.20001220703</ele>
        <time>2025-03-26T13:00:42.000Z</time>
      </trkpt>
      <trkpt lat="43.44834" lon="6.60379">
        <ele>295</ele>
        <time>2025-03-26T13:00:47.000Z</time>
      </trkpt>
      <trkpt lat="43.44834" lon="6.6038">
        <ele>294.39999389648</ele>
        <time>2025-03-26T13:00:48.000Z</time>
      </trkpt>
      <trkpt lat="43.44833" lon="6.60385">
        <ele>293.39999389648</ele>
        <time>2025-03-26T13:00:56.000Z</time>
      </trkpt>
      <trkpt lat="43.44834" lon="6.60387">
        <ele>292.39999389648</ele>
        <time>2025-03-26T13:01:01.000Z</time>
      </trkpt>
      <trkpt lat="43.44834" lon="6.60387">
        <ele>292.60000610352</ele>
        <time>2025-03-26T13:01:02.000Z</time>
      </trkpt>
      <trkpt lat="43.44834" lon="6.60387">
        <ele>291.20001220703</ele>
        <time>2025-03-26T13:01:07.000Z</time>
      </trkpt>
      <trkpt lat="43.44834" lon="6.60387">
        <ele>291</ele>
        <time>2025-03-26T13:01:08.000Z</time>
      </trkpt>
      <trkpt lat="43.44835" lon="6.60386">
        <ele>290.79998779297</ele>
        <time>2025-03-26T13:01:13.000Z</time>
      </trkpt>
      <trkpt lat="43.44841" lon="6.60386">
        <ele>291</ele>
        <time>2025-03-26T13:01:20.000Z</time>
      </trkpt>
      <trkpt lat="43.44853" lon="6.60387">
        <ele>357.8</ele>
      </trkpt>
      <trkpt lat="43.44864" lon="6.60402">
        <ele>347.9</ele>
        <time>2025-03-26T13:02:19.000Z</time>
      </trkpt>
      <trkpt lat="43.44874" lon="6.604">
        <ele>305.20001220703</ele>
        <time>2025-03-26T13:03:31.000Z</time>
      </trkpt>
      <trkpt lat="43.44875" lon="6.604">
        <ele>304</ele>
        <time>2025-03-26T13:03:48.000Z</time>
      </trkpt>
      <trkpt lat="43.44884" lon="6.60395">
        <ele>303.60000610352</ele>
        <time>2025-03-26T13:04:01.000Z</time>
      </trkpt>
      <trkpt lat="43.44889" lon="6.60396">
        <ele>304.39999389648</ele>
        <time>2025-03-26T13:04:05.000Z</time>
      </trkpt>
      <trkpt lat="43.44891" lon="6.60396">
        <ele>304.39999389648</ele>
        <time>2025-03-26T13:04:07.000Z</time>
      </trkpt>
      <trkpt lat="43.449" lon="6.60395">
        <ele>351.4</ele>
        <time>2025-03-26T13:04:16.000Z</time>
      </trkpt>
      <trkpt lat="43.44909" lon="6.60394">
        <ele>306.20001220703</ele>
        <time>2025-03-26T13:04:37.000Z</time>
      </trkpt>
      <trkpt lat="43.44913" lon="6.60392">
        <ele>305.79998779297</ele>
        <time>2025-03-26T13:04:44.000Z</time>
      </trkpt>
      <trkpt lat="43.44917" lon="6.60392">
        <ele>305.20001220703</ele>
        <time>2025-03-26T13:04:49.000Z</time>
      </trkpt>
      <trkpt lat="43.4492" lon="6.60393">
        <ele>305</ele>
        <time>2025-03-26T13:04:51.000Z</time>
      </trkpt>
      <trkpt lat="43.44922" lon="6.60395">
        <ele>360.3</ele>
      </trkpt>
      <trkpt lat="43.44928" lon="6.60395">
        <ele>360.6</ele>
        <time>2025-03-26T13:05:05.000Z</time>
      </trkpt>
      <trkpt lat="43.44934" lon="6.6039">
        <ele>311.60000610352</ele>
        <time>2025-03-26T13:05:20.000Z</time>
      </trkpt>
      <trkpt lat="43.44934" lon="6.6039">
        <ele>311.79998779297</ele>
        <time>2025-03-26T13:05:21.000Z</time>
      </trkpt>
      <trkpt lat="43.44937" lon="6.6039">
        <ele>306.79998779297</ele>
        <time>2025-03-26T13:10:20.000Z</time>
      </trkpt>
      <trkpt lat="43.44938" lon="6.60389">
        <ele>306.39999389648</ele>
        <time>2025-03-26T13:10:26.000Z</time>
      </trkpt>
      <trkpt lat="43.44939" lon="6.60389">
        <ele>305.79998779297</ele>
        <time>2025-03-26T13:10:28.000Z</time>
      </trkpt>
      <trkpt lat="43.44943" lon="6.60392">
        <ele>362.5</ele>
        <time>2025-03-26T13:10:33.000Z</time>
      </trkpt>
      <trkpt lat="43.44943" lon="6.60383">
        <ele>302.60000610352</ele>
        <time>2025-03-26T13:10:52.000Z</time>
      </trkpt>
      <trkpt lat="43.44943" lon="6.6038">
        <ele>298.20001220703</ele>
        <time>2025-03-26T13:11:32.000Z</time>
      </trkpt>
      <trkpt lat="43.44937" lon="6.60375">
        <ele>353</ele>
        <time>2025-03-26T13:11:44.000Z</time>
      </trkpt>
      <trkpt lat="43.44938" lon="6.60371">
        <ele>349.7</ele>
      </trkpt>
      <trkpt lat="43.44945" lon="6.60376">
        <ele>351.3</ele>
        <time>2025-03-26T13:12:38.000Z</time>
      </trkpt>
      <trkpt lat="43.44946" lon="6.60369">
        <ele>344.7</ele>
      </trkpt>
      <trkpt lat="43.44939" lon="6.60355">
        <ele>270.79998779297</ele>
        <time>2025-03-26T13:14:36.000Z</time>
      </trkpt>
      <trkpt lat="43.44941" lon="6.60348">
        <ele>335.2</ele>
      </trkpt>
      <trkpt lat="43.44944" lon="6.60346">
        <ele>267.60000610352</ele>
        <time>2025-03-26T13:15:43.000Z</time>
      </trkpt>
      <trkpt lat="43.44946" lon="6.6034">
        <ele>268.79998779297</ele>
        <time>2025-03-26T13:16:12.000Z</time>
      </trkpt>
      <trkpt lat="43.44948" lon="6.6034">
        <ele>269.20001220703</ele>
        <time>2025-03-26T13:16:14.000Z</time>
      </trkpt>
      <trkpt lat="43.44949" lon="6.60334">
        <ele>269.39999389648</ele>
        <time>2025-03-26T13:16:17.000Z</time>
      </trkpt>
      <trkpt lat="43.44953" lon="6.6033">
        <ele>270.39999389648</ele>
        <time>2025-03-26T13:16:29.000Z</time>
      </trkpt>
      <trkpt lat="43.44962" lon="6.60324">
        <ele>270.60000610352</ele>
        <time>2025-03-26T13:16:56.000Z</time>
      </trkpt>
      <trkpt lat="43.44966" lon="6.60321">
        <ele>270.60000610352</ele>
        <time>2025-03-26T13:17:01.000Z</time>
      </trkpt>
      <trkpt lat="43.4497" lon="6.6032">
        <ele>270.60000610352</ele>
        <time>2025-03-26T13:17:04.000Z</time>
      </trkpt>
      <trkpt lat="43.44976" lon="6.60316">
        <ele>273</ele>
        <time>2025-03-26T13:17:15.000Z</time>
      </trkpt>
      <trkpt lat="43.44977" lon="6.60313">
        <ele>273.39999389648</ele>
        <time>2025-03-26T13:17:18.000Z</time>
      </trkpt>
      <trkpt lat="43.44981" lon="6.60306">
        <ele>274.60000610352</ele>
        <time>2025-03-26T13:17:22.000Z</time>
      </trkpt>
      <trkpt lat="43.44982" lon="6.60305">
        <ele>275.20001220703</ele>
        <time>2025-03-26T13:17:23.000Z</time>
      </trkpt>
      <trkpt lat="43.44983" lon="6.60304">
        <ele>275.60000610352</ele>
        <time>2025-03-26T13:17:24.000Z</time>
      </trkpt>
      <trkpt lat="43.44984" lon="6.60302">
        <ele>275.79998779297</ele>
        <time>2025-03-26T13:17:25.000Z</time>
      </trkpt>
      <trkpt lat="43.44984" lon="6.60301">
        <ele>276</ele>
        <time>2025-03-26T13:17:26.000Z</time>
      </trkpt>
      <trkpt lat="43.44991" lon="6.60292">
        <ele>274.60000610352</ele>
        <time>2025-03-26T13:17:42.000Z</time>
      </trkpt>
      <trkpt lat="43.44995" lon="6.60287">
        <ele>274.39999389648</ele>
        <time>2025-03-26T13:17:50.000Z</time>
      </trkpt>
      <trkpt lat="43.45013" lon="6.60301">
        <ele>284</ele>
        <time>2025-03-26T13:24:19.000Z</time>
      </trkpt>
      <trkpt lat="43.45024" lon="6.60306">
        <ele>287.20001220703</ele>
        <time>2025-03-26T13:24:37.000Z</time>
      </trkpt>
      <trkpt lat="43.45028" lon="6.60308">
        <ele>289.79998779297</ele>
        <time>2025-03-26T13:24:51.000Z</time>
      </trkpt>
      <trkpt lat="43.4503" lon="6.60308">
        <ele>290.60000610352</ele>
        <time>2025-03-26T13:24:55.000Z</time>
      </trkpt>
      <trkpt lat="43.45031" lon="6.60306">
        <ele>291.20001220703</ele>
        <time>2025-03-26T13:24:57.000Z</time>
      </trkpt>
      <trkpt lat="43.45033" lon="6.60304">
        <ele>291.60000610352</ele>
        <time>2025-03-26T13:25:01.000Z</time>
      </trkpt>
      <trkpt lat="43.45034" lon="6.60304">
        <ele>291.60000610352</ele>
        <time>2025-03-26T13:25:02.000Z</time>
      </trkpt>
      <trkpt lat="43.45036" lon="6.60304">
        <ele>291.60000610352</ele>
        <time>2025-03-26T13:25:04.000Z</time>
      </trkpt>
      <trkpt lat="43.45039" lon="6.60304">
        <ele>291</ele>
        <time>2025-03-26T13:25:08.000Z</time>
      </trkpt>
      <trkpt lat="43.45044" lon="6.60302">
        <ele>290.20001220703</ele>
        <time>2025-03-26T13:25:16.000Z</time>
      </trkpt>
      <trkpt lat="43.45045" lon="6.60298">
        <ele>289.60000610352</ele>
        <time>2025-03-26T13:25:20.000Z</time>
      </trkpt>
      <trkpt lat="43.45049" lon="6.60292">
        <ele>290.20001220703</ele>
        <time>2025-03-26T13:25:27.000Z</time>
      </trkpt>
      <trkpt lat="43.45049" lon="6.60292">
        <ele>290.20001220703</ele>
        <time>2025-03-26T13:25:28.000Z</time>
      </trkpt>
      <trkpt lat="43.4505" lon="6.60292">
        <ele>291.20001220703</ele>
        <time>2025-03-26T13:25:30.000Z</time>
      </trkpt>
      <trkpt lat="43.4505" lon="6.60292">
        <ele>291.60000610352</ele>
        <time>2025-03-26T13:25:31.000Z</time>
      </trkpt>
      <trkpt lat="43.45051" lon="6.60288">
        <ele>292.20001220703</ele>
        <time>2025-03-26T13:25:34.000Z</time>
      </trkpt>
      <trkpt lat="43.45051" lon="6.60288">
        <ele>292.20001220703</ele>
        <time>2025-03-26T13:25:35.000Z</time>
      </trkpt>
      <trkpt lat="43.45052" lon="6.60286">
        <ele>292.79998779297</ele>
        <time>2025-03-26T13:25:37.000Z</time>
      </trkpt>
      <trkpt lat="43.45053" lon="6.60285">
        <ele>293</ele>
        <time>2025-03-26T13:25:39.000Z</time>
      </trkpt>
      <trkpt lat="43.45056" lon="6.60281">
        <ele>292.79998779297</ele>
        <time>2025-03-26T13:25:43.000Z</time>
      </trkpt>
      <trkpt lat="43.45066" lon="6.6028">
        <ele>291.20001220703</ele>
        <time>2025-03-26T13:25:51.000Z</time>
      </trkpt>
      <trkpt lat="43.45067" lon="6.6028">
        <ele>291</ele>
        <time>2025-03-26T13:25:52.000Z</time>
      </trkpt>
      <trkpt lat="43.45071" lon="6.60282">
        <ele>290.20001220703</ele>
        <time>2025-03-26T13:25:56.000Z</time>
      </trkpt>
      <trkpt lat="43.45077" lon="6.60284">
        <ele>289</ele>
        <time>2025-03-26T13:26:02.000Z</time>
      </trkpt>
      <trkpt lat="43.45078" lon="6.60285">
        <ele>288.39999389648</ele>
        <time>2025-03-26T13:26:04.000Z</time>
      </trkpt>
      <trkpt lat="43.45079" lon="6.60285">
        <ele>288</ele>
        <time>2025-03-26T13:26:07.000Z</time>
      </trkpt>
      <trkpt lat="43.45079" lon="6.60285">
        <ele>287.79998779297</ele>
        <time>2025-03-26T13:26:08.000Z</time>
      </trkpt>
      <trkpt lat="43.45079" lon="6.60285">
        <ele>287.39999389648</ele>
        <time>2025-03-26T13:26:09.000Z</time>
      </trkpt>
      <trkpt lat="43.45079" lon="6.60283">
        <ele>286.79998779297</ele>
        <time>2025-03-26T13:26:11.000Z</time>
      </trkpt>
      <trkpt lat="43.45079" lon="6.60283">
        <ele>286.60000610352</ele>
        <time>2025-03-26T13:26:12.000Z</time>
      </trkpt>
      <trkpt lat="43.45079" lon="6.60282">
        <ele>286.60000610352</ele>
        <time>2025-03-26T13:26:13.000Z</time>
      </trkpt>
      <trkpt lat="43.45079" lon="6.60282">
        <ele>286.20001220703</ele>
        <time>2025-03-26T13:26:15.000Z</time>
      </trkpt>
      <trkpt lat="43.45078" lon="6.6028">
        <ele>285.60000610352</ele>
        <time>2025-03-26T13:26:19.000Z</time>
      </trkpt>
      <trkpt lat="43.45078" lon="6.6028">
        <ele>285.39999389648</ele>
        <time>2025-03-26T13:26:21.000Z</time>
      </trkpt>
      <trkpt lat="43.45076" lon="6.60279">
        <ele>284.79998779297</ele>
        <time>2025-03-26T13:26:26.000Z</time>
      </trkpt>
      <trkpt lat="43.45074" lon="6.60277">
        <ele>284.60000610352</ele>
        <time>2025-03-26T13:26:29.000Z</time>
      </trkpt>
      <trkpt lat="43.45073" lon="6.60274">
        <ele>283</ele>
        <time>2025-03-26T13:26:32.000Z</time>
      </trkpt>
      <trkpt lat="43.4507" lon="6.60272">
        <ele>282</ele>
        <time>2025-03-26T13:26:35.000Z</time>
      </trkpt>
      <trkpt lat="43.45068" lon="6.60269">
        <ele>281.20001220703</ele>
        <time>2025-03-26T13:26:41.000Z</time>
      </trkpt>
      <trkpt lat="43.45067" lon="6.60268">
        <ele>280.79998779297</ele>
        <time>2025-03-26T13:26:43.000Z</time>
      </trkpt>
      <trkpt lat="43.45067" lon="6.60269">
        <ele>280.60000610352</ele>
        <time>2025-03-26T13:26:48.000Z</time>
      </trkpt>
      <trkpt lat="43.45066" lon="6.60267">
        <ele>280.20001220703</ele>
        <time>2025-03-26T13:26:53.000Z</time>
      </trkpt>
      <trkpt lat="43.45063" lon="6.60262">
        <ele>279.79998779297</ele>
        <time>2025-03-26T13:26:58.000Z</time>
      </trkpt>
      <trkpt lat="43.45063" lon="6.60261">
        <ele>279.79998779297</ele>
        <time>2025-03-26T13:26:59.000Z</time>
      </trkpt>
      <trkpt lat="43.45062" lon="6.60259">
        <ele>278.20001220703</ele>
        <time>2025-03-26T13:27:01.000Z</time>
      </trkpt>
      <trkpt lat="43.45062" lon="6.60254">
        <ele>277</ele>
        <time>2025-03-26T13:27:05.000Z</time>
      </trkpt>
      <trkpt lat="43.45062" lon="6.60252">
        <ele>276.79998779297</ele>
        <time>2025-03-26T13:27:07.000Z</time>
      </trkpt>
      <trkpt lat="43.45059" lon="6.60248">
        <ele>275.60000610352</ele>
        <time>2025-03-26T13:27:12.000Z</time>
      </trkpt>
      <trkpt lat="43.45059" lon="6.60246">
        <ele>274.60000610352</ele>
        <time>2025-03-26T13:27:14.000Z</time>
      </trkpt>
      <trkpt lat="43.45059" lon="6.60243">
        <ele>273.60000610352</ele>
        <time>2025-03-26T13:27:18.000Z</time>
      </trkpt>
      <trkpt lat="43.45059" lon="6.60241">
        <ele>273.20001220703</ele>
        <time>2025-03-26T13:27:20.000Z</time>
      </trkpt>
      <trkpt lat="43.45059" lon="6.60239">
        <ele>272.39999389648</ele>
        <time>2025-03-26T13:27:23.000Z</time>
      </trkpt>
      <trkpt lat="43.4506" lon="6.60236">
        <ele>271.60000610352</ele>
        <time>2025-03-26T13:27:26.000Z</time>
      </trkpt>
      <trkpt lat="43.45058" lon="6.60235">
        <ele>271.20001220703</ele>
        <time>2025-03-26T13:27:28.000Z</time>
      </trkpt>
      <trkpt lat="43.45058" lon="6.60232">
        <ele>270.60000610352</ele>
        <time>2025-03-26T13:27:32.000Z</time>
      </trkpt>
      <trkpt lat="43.45057" lon="6.60229">
        <ele>270</ele>
        <time>2025-03-26T13:27:35.000Z</time>
      </trkpt>
      <trkpt lat="43.45057" lon="6.60228">
        <ele>269.60000610352</ele>
        <time>2025-03-26T13:27:36.000Z</time>
      </trkpt>
      <trkpt lat="43.45058" lon="6.60227">
        <ele>269</ele>
        <time>2025-03-26T13:27:39.000Z</time>
      </trkpt>
      <trkpt lat="43.45058" lon="6.60226">
        <ele>269</ele>
        <time>2025-03-26T13:27:40.000Z</time>
      </trkpt>
      <trkpt lat="43.45059" lon="6.60224">
        <ele>268</ele>
        <time>2025-03-26T13:27:46.000Z</time>
      </trkpt>
      <trkpt lat="43.45058" lon="6.60218">
        <ele>267</ele>
        <time>2025-03-26T13:27:52.000Z</time>
      </trkpt>
      <trkpt lat="43.45058" lon="6.60215">
        <ele>266.79998779297</ele>
        <time>2025-03-26T13:27:55.000Z</time>
      </trkpt>
      <trkpt lat="43.45058" lon="6.60211">
        <ele>265.60000610352</ele>
        <time>2025-03-26T13:27:58.000Z</time>
      </trkpt>
      <trkpt lat="43.45055" lon="6.60206">
        <ele>264.60000610352</ele>
        <time>2025-03-26T13:28:03.000Z</time>
      </trkpt>
      <trkpt lat="43.45055" lon="6.60202">
        <ele>263.20001220703</ele>
        <time>2025-03-26T13:28:08.000Z</time>
      </trkpt>
      <trkpt lat="43.45054" lon="6.60199">
        <ele>262.39999389648</ele>
        <time>2025-03-26T13:28:11.000Z</time>
      </trkpt>
      <trkpt lat="43.45053" lon="6.60198">
        <ele>262.20001220703</ele>
        <time>2025-03-26T13:28:12.000Z</time>
      </trkpt>
      <trkpt lat="43.45053" lon="6.60189">
        <ele>261.60000610352</ele>
        <time>2025-03-26T13:28:17.000Z</time>
      </trkpt>
      <trkpt lat="43.45053" lon="6.60184">
        <ele>261</ele>
        <time>2025-03-26T13:28:21.000Z</time>
      </trkpt>
      <trkpt lat="43.45052" lon="6.60183">
        <ele>260.79998779297</ele>
        <time>2025-03-26T13:28:22.000Z</time>
      </trkpt>
      <trkpt lat="43.4505" lon="6.60181">
        <ele>260.60000610352</ele>
        <time>2025-03-26T13:28:24.000Z</time>
      </trkpt>
      <trkpt lat="43.45049" lon="6.60173">
        <ele>260.39999389648</ele>
        <time>2025-03-26T13:28:28.000Z</time>
      </trkpt>
      <trkpt lat="43.45052" lon="6.60161">
        <ele>259.79998779297</ele>
        <time>2025-03-26T13:28:34.000Z</time>
      </trkpt>
      <trkpt lat="43.45053" lon="6.6016">
        <ele>259.60000610352</ele>
        <time>2025-03-26T13:28:35.000Z</time>
      </trkpt>
      <trkpt lat="43.45058" lon="6.60151">
        <ele>259</ele>
        <time>2025-03-26T13:28:43.000Z</time>
      </trkpt>
      <trkpt lat="43.45058" lon="6.6015">
        <ele>259</ele>
        <time>2025-03-26T13:28:44.000Z</time>
      </trkpt>
      <trkpt lat="43.45057" lon="6.6015">
        <ele>258.39999389648</ele>
        <time>2025-03-26T13:28:46.000Z</time>
      </trkpt>
      <trkpt lat="43.45057" lon="6.60149">
        <ele>258</ele>
        <time>2025-03-26T13:28:47.000Z</time>
      </trkpt>
      <trkpt lat="43.45057" lon="6.60147">
        <ele>257.60000610352</ele>
        <time>2025-03-26T13:28:49.000Z</time>
      </trkpt>
      <trkpt lat="43.45057" lon="6.60148">
        <ele>257.39999389648</ele>
        <time>2025-03-26T13:28:51.000Z</time>
      </trkpt>
      <trkpt lat="43.45057" lon="6.60146">
        <ele>257.39999389648</ele>
        <time>2025-03-26T13:28:52.000Z</time>
      </trkpt>
      <trkpt lat="43.45057" lon="6.60146">
        <ele>257.20001220703</ele>
        <time>2025-03-26T13:28:53.000Z</time>
      </trkpt>
      <trkpt lat="43.45057" lon="6.60145">
        <ele>257.20001220703</ele>
        <time>2025-03-26T13:28:54.000Z</time>
      </trkpt>
      <trkpt lat="43.45057" lon="6.60144">
        <ele>256.79998779297</ele>
        <time>2025-03-26T13:28:55.000Z</time>
      </trkpt>
      <trkpt lat="43.45057" lon="6.60142">
        <ele>255.80000305176</ele>
        <time>2025-03-26T13:28:57.000Z</time>
      </trkpt>
      <trkpt lat="43.45057" lon="6.60139">
        <ele>254.80000305176</ele>
        <time>2025-03-26T13:29:02.000Z</time>
      </trkpt>
      <trkpt lat="43.45058" lon="6.60139">
        <ele>254.60000610352</ele>
        <time>2025-03-26T13:29:04.000Z</time>
      </trkpt>
      <trkpt lat="43.45057" lon="6.60135">
        <ele>253.80000305176</ele>
        <time>2025-03-26T13:29:09.000Z</time>
      </trkpt>
      <trkpt lat="43.45057" lon="6.60134">
        <ele>253.60000610352</ele>
        <time>2025-03-26T13:29:10.000Z</time>
      </trkpt>
      <trkpt lat="43.45058" lon="6.60133">
        <ele>252.60000610352</ele>
        <time>2025-03-26T13:29:16.000Z</time>
      </trkpt>
      <trkpt lat="43.45059" lon="6.60133">
        <ele>252.39999389648</ele>
        <time>2025-03-26T13:29:18.000Z</time>
      </trkpt>
      <trkpt lat="43.4506" lon="6.6013">
        <ele>252</ele>
        <time>2025-03-26T13:29:25.000Z</time>
      </trkpt>
      <trkpt lat="43.4506" lon="6.60127">
        <ele>251.60000610352</ele>
        <time>2025-03-26T13:29:29.000Z</time>
      </trkpt>
      <trkpt lat="43.45061" lon="6.60126">
        <ele>250.19999694824</ele>
        <time>2025-03-26T13:29:31.000Z</time>
      </trkpt>
      <trkpt lat="43.45067" lon="6.60122">
        <ele>248</ele>
        <time>2025-03-26T13:29:41.000Z</time>
      </trkpt>
      <trkpt lat="43.45069" lon="6.60118">
        <ele>247.39999389648</ele>
        <time>2025-03-26T13:29:44.000Z</time>
      </trkpt>
      <trkpt lat="43.45069" lon="6.60115">
        <ele>247</ele>
        <time>2025-03-26T13:29:46.000Z</time>
      </trkpt>
      <trkpt lat="43.45069" lon="6.60115">
        <ele>247</ele>
        <time>2025-03-26T13:29:47.000Z</time>
      </trkpt>
      <trkpt lat="43.45068" lon="6.60112">
        <ele>246.39999389648</ele>
        <time>2025-03-26T13:29:50.000Z</time>
      </trkpt>
      <trkpt lat="43.4507" lon="6.60109">
        <ele>246</ele>
        <time>2025-03-26T13:29:52.000Z</time>
      </trkpt>
      <trkpt lat="43.45071" lon="6.60108">
        <ele>245.80000305176</ele>
        <time>2025-03-26T13:29:53.000Z</time>
      </trkpt>
      <trkpt lat="43.45071" lon="6.60099">
        <ele>237.60000610352</ele>
        <time>2025-03-26T14:17:36.000Z</time>
      </trkpt>
      <trkpt lat="43.45071" lon="6.60098">
        <ele>238.19999694824</ele>
        <time>2025-03-26T14:17:42.000Z</time>
      </trkpt>
      <trkpt lat="43.4507" lon="6.60098">
        <ele>238.80000305176</ele>
        <time>2025-03-26T14:18:00.000Z</time>
      </trkpt>
      <trkpt lat="43.45071" lon="6.60086">
        <ele>238.80000305176</ele>
        <time>2025-03-26T14:18:10.000Z</time>
      </trkpt>
      <trkpt lat="43.45075" lon="6.60076">
        <ele>239.19999694824</ele>
        <time>2025-03-26T14:18:17.000Z</time>
      </trkpt>
      <trkpt lat="43.45076" lon="6.60074">
        <ele>239.60000610352</ele>
        <time>2025-03-26T14:18:19.000Z</time>
      </trkpt>
      <trkpt lat="43.45076" lon="6.60072">
        <ele>239.60000610352</ele>
        <time>2025-03-26T14:18:20.000Z</time>
      </trkpt>
      <trkpt lat="43.4508" lon="6.60065">
        <ele>239.60000610352</ele>
        <time>2025-03-26T14:18:28.000Z</time>
      </trkpt>
      <trkpt lat="43.45081" lon="6.60065">
        <ele>239.60000610352</ele>
        <time>2025-03-26T14:18:30.000Z</time>
      </trkpt>
      <trkpt lat="43.45081" lon="6.60065">
        <ele>238.80000305176</ele>
        <time>2025-03-26T14:18:34.000Z</time>
      </trkpt>
      <trkpt lat="43.45081" lon="6.60065">
        <ele>238.60000610352</ele>
        <time>2025-03-26T14:18:35.000Z</time>
      </trkpt>
      <trkpt lat="43.45081" lon="6.60061">
        <ele>238.19999694824</ele>
        <time>2025-03-26T14:18:38.000Z</time>
      </trkpt>
      <trkpt lat="43.45081" lon="6.60059">
        <ele>238.19999694824</ele>
        <time>2025-03-26T14:18:39.000Z</time>
      </trkpt>
      <trkpt lat="43.45082" lon="6.60054">
        <ele>238</ele>
        <time>2025-03-26T14:18:44.000Z</time>
      </trkpt>
      <trkpt lat="43.45083" lon="6.60053">
        <ele>238.19999694824</ele>
        <time>2025-03-26T14:18:46.000Z</time>
      </trkpt>
      <trkpt lat="43.45082" lon="6.60051">
        <ele>238.39999389648</ele>
        <time>2025-03-26T14:18:54.000Z</time>
      </trkpt>
      <trkpt lat="43.45082" lon="6.60051">
        <ele>238.80000305176</ele>
        <time>2025-03-26T14:19:08.000Z</time>
      </trkpt>
      <trkpt lat="43.45084" lon="6.6005">
        <ele>239.19999694824</ele>
        <time>2025-03-26T14:20:29.000Z</time>
      </trkpt>
      <trkpt lat="43.45084" lon="6.60041">
        <ele>240.19999694824</ele>
        <time>2025-03-26T14:20:48.000Z</time>
      </trkpt>
      <trkpt lat="43.45084" lon="6.6004">
        <ele>240.39999389648</ele>
        <time>2025-03-26T14:20:49.000Z</time>
      </trkpt>
      <trkpt lat="43.45085" lon="6.60033">
        <ele>241.39999389648</ele>
        <time>2025-03-26T14:20:54.000Z</time>
      </trkpt>
      <trkpt lat="43.45085" lon="6.60032">
        <ele>242</ele>
        <time>2025-03-26T14:20:56.000Z</time>
      </trkpt>
      <trkpt lat="43.45084" lon="6.6003">
        <ele>242.60000610352</ele>
        <time>2025-03-26T14:20:59.000Z</time>
      </trkpt>
      <trkpt lat="43.45083" lon="6.60027">
        <ele>242.60000610352</ele>
        <time>2025-03-26T14:21:02.000Z</time>
      </trkpt>
      <trkpt lat="43.45083" lon="6.60024">
        <ele>242.60000610352</ele>
        <time>2025-03-26T14:21:08.000Z</time>
      </trkpt>
      <trkpt lat="43.45083" lon="6.60025">
        <ele>242.60000610352</ele>
        <time>2025-03-26T14:21:16.000Z</time>
      </trkpt>
      <trkpt lat="43.45084" lon="6.60024">
        <ele>243.60000610352</ele>
        <time>2025-03-26T14:21:20.000Z</time>
      </trkpt>
      <trkpt lat="43.45084" lon="6.60024">
        <ele>244.19999694824</ele>
        <time>2025-03-26T14:21:23.000Z</time>
      </trkpt>
      <trkpt lat="43.45083" lon="6.60026">
        <ele>244.80000305176</ele>
        <time>2025-03-26T14:21:26.000Z</time>
      </trkpt>
      <trkpt lat="43.45084" lon="6.60024">
        <ele>245.39999389648</ele>
        <time>2025-03-26T14:21:28.000Z</time>
      </trkpt>
      <trkpt lat="43.45083" lon="6.60023">
        <ele>248.39999389648</ele>
        <time>2025-03-26T14:21:41.000Z</time>
      </trkpt>
      <trkpt lat="43.45084" lon="6.60022">
        <ele>249</ele>
        <time>2025-03-26T14:21:45.000Z</time>
      </trkpt>
      <trkpt lat="43.45084" lon="6.60018">
        <ele>249.39999389648</ele>
        <time>2025-03-26T14:21:49.000Z</time>
      </trkpt>
      <trkpt lat="43.45084" lon="6.60017">
        <ele>250</ele>
        <time>2025-03-26T14:21:52.000Z</time>
      </trkpt>
      <trkpt lat="43.45083" lon="6.60014">
        <ele>250.60000610352</ele>
        <time>2025-03-26T14:21:56.000Z</time>
      </trkpt>
      <trkpt lat="43.45082" lon="6.60013">
        <ele>250.80000305176</ele>
        <time>2025-03-26T14:21:58.000Z</time>
      </trkpt>
      <trkpt lat="43.45082" lon="6.60002">
        <ele>255.19999694824</ele>
        <time>2025-03-26T14:22:45.000Z</time>
      </trkpt>
      <trkpt lat="43.45084" lon="6.59999">
        <ele>256</ele>
        <time>2025-03-26T14:22:49.000Z</time>
      </trkpt>
      <trkpt lat="43.45083" lon="6.59998">
        <ele>256.20001220703</ele>
        <time>2025-03-26T14:22:53.000Z</time>
      </trkpt>
      <trkpt lat="43.45082" lon="6.59996">
        <ele>257</ele>
        <time>2025-03-26T14:23:00.000Z</time>
      </trkpt>
      <trkpt lat="43.45082" lon="6.59995">
        <ele>257.20001220703</ele>
        <time>2025-03-26T14:23:01.000Z</time>
      </trkpt>
      <trkpt lat="43.45083" lon="6.59994">
        <ele>258.20001220703</ele>
        <time>2025-03-26T14:23:06.000Z</time>
      </trkpt>
      <trkpt lat="43.45083" lon="6.59992">
        <ele>258.79998779297</ele>
        <time>2025-03-26T14:23:10.000Z</time>
      </trkpt>
      <trkpt lat="43.45084" lon="6.59992">
        <ele>259.39999389648</ele>
        <time>2025-03-26T14:23:11.000Z</time>
      </trkpt>
      <trkpt lat="43.45083" lon="6.59992">
        <ele>260</ele>
        <time>2025-03-26T14:23:16.000Z</time>
      </trkpt>
      <trkpt lat="43.45083" lon="6.59992">
        <ele>260.39999389648</ele>
        <time>2025-03-26T14:23:19.000Z</time>
      </trkpt>
      <trkpt lat="43.45084" lon="6.59991">
        <ele>260.60000610352</ele>
        <time>2025-03-26T14:23:20.000Z</time>
      </trkpt>
      <trkpt lat="43.45074" lon="6.59977">
        <ele>276</ele>
        <time>2025-03-26T14:28:06.000Z</time>
      </trkpt>
      <trkpt lat="43.45072" lon="6.59977">
        <ele>277.20001220703</ele>
        <time>2025-03-26T14:28:13.000Z</time>
      </trkpt>
      <trkpt lat="43.45072" lon="6.59977">
        <ele>278.39999389648</ele>
        <time>2025-03-26T14:28:24.000Z</time>
      </trkpt>
      <trkpt lat="43.45079" lon="6.59967">
        <ele>349.9</ele>
      </trkpt>
      <trkpt lat="43.45084" lon="6.59941">
        <ele>288.39999389648</ele>
        <time>2025-03-26T14:47:50.000Z</time>
      </trkpt>
      <trkpt lat="43.45087" lon="6.59941">
        <ele>350</ele>
        <time>2025-03-26T14:47:51.000Z</time>
      </trkpt>
      <trkpt lat="43.45074" lon="6.59927">
        <ele>344.5</ele>
        <time>2025-03-26T14:47:58.000Z</time>
      </trkpt>
      <trkpt lat="43.45093" lon="6.59914">
        <ele>341.7</ele>
      </trkpt>
      <trkpt lat="43.45093" lon="6.59895">
        <ele>277.60000610352</ele>
        <time>2025-03-26T14:49:01.000Z</time>
      </trkpt>
      <trkpt lat="43.45093" lon="6.59894">
        <ele>277.60000610352</ele>
        <time>2025-03-26T14:49:02.000Z</time>
      </trkpt>
      <trkpt lat="43.45092" lon="6.59889">
        <ele>277.20001220703</ele>
        <time>2025-03-26T14:49:06.000Z</time>
      </trkpt>
      <trkpt lat="43.4509" lon="6.59887">
        <ele>276.39999389648</ele>
        <time>2025-03-26T14:49:09.000Z</time>
      </trkpt>
      <trkpt lat="43.45089" lon="6.59886">
        <ele>276.20001220703</ele>
        <time>2025-03-26T14:49:10.000Z</time>
      </trkpt>
      <trkpt lat="43.45085" lon="6.59886">
        <ele>276.60000610352</ele>
        <time>2025-03-26T14:49:14.000Z</time>
      </trkpt>
      <trkpt lat="43.45081" lon="6.59887">
        <ele>276.79998779297</ele>
        <time>2025-03-26T14:49:18.000Z</time>
      </trkpt>
      <trkpt lat="43.45079" lon="6.59885">
        <ele>276.20001220703</ele>
        <time>2025-03-26T14:49:20.000Z</time>
      </trkpt>
      <trkpt lat="43.45079" lon="6.59883">
        <ele>276</ele>
        <time>2025-03-26T14:49:21.000Z</time>
      </trkpt>
      <trkpt lat="43.45081" lon="6.59873">
        <ele>276.20001220703</ele>
        <time>2025-03-26T14:49:28.000Z</time>
      </trkpt>
      <trkpt lat="43.45083" lon="6.59871">
        <ele>276.20001220703</ele>
        <time>2025-03-26T14:49:30.000Z</time>
      </trkpt>
      <trkpt lat="43.45087" lon="6.59848">
        <ele>340.8</ele>
      </trkpt>
      <trkpt lat="43.451" lon="6.59837">
        <ele>275.79998779297</ele>
        <time>2025-03-26T14:50:00.000Z</time>
      </trkpt>
      <trkpt lat="43.45103" lon="6.59837">
        <ele>275</ele>
        <time>2025-03-26T14:50:03.000Z</time>
      </trkpt>
      <trkpt lat="43.45106" lon="6.59838">
        <ele>274.20001220703</ele>
        <time>2025-03-26T14:50:07.000Z</time>
      </trkpt>
      <trkpt lat="43.45107" lon="6.59839">
        <ele>274</ele>
        <time>2025-03-26T14:50:08.000Z</time>
      </trkpt>
      <trkpt lat="43.45107" lon="6.59838">
        <ele>273.60000610352</ele>
        <time>2025-03-26T14:50:09.000Z</time>
      </trkpt>
      <trkpt lat="43.45111" lon="6.59837">
        <ele>272.60000610352</ele>
        <time>2025-03-26T14:50:13.000Z</time>
      </trkpt>
      <trkpt lat="43.45114" lon="6.59835">
        <ele>272.20001220703</ele>
        <time>2025-03-26T14:50:16.000Z</time>
      </trkpt>
      <trkpt lat="43.45114" lon="6.59835">
        <ele>271.79998779297</ele>
        <time>2025-03-26T14:50:17.000Z</time>
      </trkpt>
      <trkpt lat="43.45115" lon="6.59833">
        <ele>271.60000610352</ele>
        <time>2025-03-26T14:50:18.000Z</time>
      </trkpt>
      <trkpt lat="43.45118" lon="6.59827">
        <ele>270.60000610352</ele>
        <time>2025-03-26T14:50:23.000Z</time>
      </trkpt>
      <trkpt lat="43.45118" lon="6.59825">
        <ele>270</ele>
        <time>2025-03-26T14:50:24.000Z</time>
      </trkpt>
      <trkpt lat="43.45118" lon="6.59823">
        <ele>268.79998779297</ele>
        <time>2025-03-26T14:50:50.000Z</time>
      </trkpt>
      <trkpt lat="43.45117" lon="6.59821">
        <ele>269.20001220703</ele>
        <time>2025-03-26T14:50:52.000Z</time>
      </trkpt>
      <trkpt lat="43.45116" lon="6.59817">
        <ele>269.79998779297</ele>
        <time>2025-03-26T14:50:57.000Z</time>
      </trkpt>
      <trkpt lat="43.45116" lon="6.59812">
        <ele>270.39999389648</ele>
        <time>2025-03-26T14:51:01.000Z</time>
      </trkpt>
      <trkpt lat="43.45116" lon="6.59809">
        <ele>270.60000610352</ele>
        <time>2025-03-26T14:51:03.000Z</time>
      </trkpt>
      <trkpt lat="43.45113" lon="6.59804">
        <ele>270.79998779297</ele>
        <time>2025-03-26T14:51:08.000Z</time>
      </trkpt>
      <trkpt lat="43.45108" lon="6.59802">
        <ele>271.20001220703</ele>
        <time>2025-03-26T14:51:13.000Z</time>
      </trkpt>
      <trkpt lat="43.45108" lon="6.598">
        <ele>271.39999389648</ele>
        <time>2025-03-26T14:51:14.000Z</time>
      </trkpt>
      <trkpt lat="43.45102" lon="6.59789">
        <ele>271.39999389648</ele>
        <time>2025-03-26T14:51:23.000Z</time>
      </trkpt>
      <trkpt lat="43.45099" lon="6.59785">
        <ele>271.20001220703</ele>
        <time>2025-03-26T14:51:28.000Z</time>
      </trkpt>
      <trkpt lat="43.45098" lon="6.59783">
        <ele>271</ele>
        <time>2025-03-26T14:51:30.000Z</time>
      </trkpt>
      <trkpt lat="43.45097" lon="6.59782">
        <ele>271</ele>
        <time>2025-03-26T14:51:31.000Z</time>
      </trkpt>
      <trkpt lat="43.45096" lon="6.59781">
        <ele>270.79998779297</ele>
        <time>2025-03-26T14:51:32.000Z</time>
      </trkpt>
      <trkpt lat="43.4509" lon="6.59776">
        <ele>269.79998779297</ele>
        <time>2025-03-26T14:51:40.000Z</time>
      </trkpt>
      <trkpt lat="43.45089" lon="6.59775">
        <ele>269.60000610352</ele>
        <time>2025-03-26T14:51:41.000Z</time>
      </trkpt>
      <trkpt lat="43.45089" lon="6.59774">
        <ele>269.60000610352</ele>
        <time>2025-03-26T14:51:42.000Z</time>
      </trkpt>
      <trkpt lat="43.45089" lon="6.59767">
        <ele>269.20001220703</ele>
        <time>2025-03-26T14:51:45.000Z</time>
      </trkpt>
      <trkpt lat="43.45087" lon="6.59761">
        <ele>268.39999389648</ele>
        <time>2025-03-26T14:51:50.000Z</time>
      </trkpt>
      <trkpt lat="43.45087" lon="6.59761">
        <ele>268.39999389648</ele>
        <time>2025-03-26T14:51:51.000Z</time>
      </trkpt>
      <trkpt lat="43.45087" lon="6.59759">
        <ele>267.79998779297</ele>
        <time>2025-03-26T14:51:53.000Z</time>
      </trkpt>
      <trkpt lat="43.45088" lon="6.59745">
        <ele>264.20001220703</ele>
        <time>2025-03-26T14:52:10.000Z</time>
      </trkpt>
      <trkpt lat="43.45088" lon="6.59741">
        <ele>263.79998779297</ele>
        <time>2025-03-26T14:52:14.000Z</time>
      </trkpt>
      <trkpt lat="43.45089" lon="6.59741">
        <ele>263.39999389648</ele>
        <time>2025-03-26T14:52:15.000Z</time>
      </trkpt>
      <trkpt lat="43.4509" lon="6.5974">
        <ele>263.20001220703</ele>
        <time>2025-03-26T14:52:17.000Z</time>
      </trkpt>
      <trkpt lat="43.4509" lon="6.59739">
        <ele>262.39999389648</ele>
        <time>2025-03-26T14:52:19.000Z</time>
      </trkpt>
      <trkpt lat="43.45091" lon="6.59737">
        <ele>261.79998779297</ele>
        <time>2025-03-26T14:52:21.000Z</time>
      </trkpt>
      <trkpt lat="43.45091" lon="6.59736">
        <ele>261.39999389648</ele>
        <time>2025-03-26T14:52:22.000Z</time>
      </trkpt>
      <trkpt lat="43.45091" lon="6.59734">
        <ele>260.60000610352</ele>
        <time>2025-03-26T14:52:27.000Z</time>
      </trkpt>
      <trkpt lat="43.45092" lon="6.59731">
        <ele>260</ele>
        <time>2025-03-26T14:52:30.000Z</time>
      </trkpt>
      <trkpt lat="43.45093" lon="6.59729">
        <ele>259</ele>
        <time>2025-03-26T14:52:34.000Z</time>
      </trkpt>
      <trkpt lat="43.45093" lon="6.59728">
        <ele>259</ele>
        <time>2025-03-26T14:52:35.000Z</time>
      </trkpt>
      <trkpt lat="43.45092" lon="6.59723">
        <ele>257.79998779297</ele>
        <time>2025-03-26T14:52:40.000Z</time>
      </trkpt>
      <trkpt lat="43.45091" lon="6.59723">
        <ele>257.60000610352</ele>
        <time>2025-03-26T14:52:42.000Z</time>
      </trkpt>
      <trkpt lat="43.45092" lon="6.59725">
        <ele>257</ele>
        <time>2025-03-26T14:52:48.000Z</time>
      </trkpt>
      <trkpt lat="43.45092" lon="6.59725">
        <ele>257.20001220703</ele>
        <time>2025-03-26T14:52:57.000Z</time>
      </trkpt>
      <trkpt lat="43.45091" lon="6.59724">
        <ele>256.79998779297</ele>
        <time>2025-03-26T14:53:00.000Z</time>
      </trkpt>
      <trkpt lat="43.45091" lon="6.59722">
        <ele>255.80000305176</ele>
        <time>2025-03-26T14:53:07.000Z</time>
      </trkpt>
      <trkpt lat="43.45091" lon="6.59717">
        <ele>255.39999389648</ele>
        <time>2025-03-26T14:53:09.000Z</time>
      </trkpt>
      <trkpt lat="43.45091" lon="6.59713">
        <ele>254.80000305176</ele>
        <time>2025-03-26T14:53:11.000Z</time>
      </trkpt>
      <trkpt lat="43.4509" lon="6.59711">
        <ele>254.60000610352</ele>
        <time>2025-03-26T14:53:12.000Z</time>
      </trkpt>
      <trkpt lat="43.4509" lon="6.5971">
        <ele>254.39999389648</ele>
        <time>2025-03-26T14:53:13.000Z</time>
      </trkpt>
      <trkpt lat="43.4509" lon="6.59708">
        <ele>254.19999694824</ele>
        <time>2025-03-26T14:53:14.000Z</time>
      </trkpt>
      <trkpt lat="43.45091" lon="6.59703">
        <ele>254.19999694824</ele>
        <time>2025-03-26T14:53:16.000Z</time>
      </trkpt>
      <trkpt lat="43.4509" lon="6.59699">
        <ele>253.80000305176</ele>
        <time>2025-03-26T14:53:19.000Z</time>
      </trkpt>
      <trkpt lat="43.4509" lon="6.59698">
        <ele>253.60000610352</ele>
        <time>2025-03-26T14:53:20.000Z</time>
      </trkpt>
      <trkpt lat="43.45089" lon="6.59695">
        <ele>253.39999389648</ele>
        <time>2025-03-26T14:53:22.000Z</time>
      </trkpt>
      <trkpt lat="43.45089" lon="6.59695">
        <ele>253.39999389648</ele>
        <time>2025-03-26T14:53:23.000Z</time>
      </trkpt>
      <trkpt lat="43.45088" lon="6.59694">
        <ele>252.80000305176</ele>
        <time>2025-03-26T14:53:26.000Z</time>
      </trkpt>
      <trkpt lat="43.45088" lon="6.59692">
        <ele>252.39999389648</ele>
        <time>2025-03-26T14:53:28.000Z</time>
      </trkpt>
      <trkpt lat="43.45087" lon="6.59692">
        <ele>252.19999694824</ele>
        <time>2025-03-26T14:53:29.000Z</time>
      </trkpt>
      <trkpt lat="43.45087" lon="6.59687">
        <ele>251.80000305176</ele>
        <time>2025-03-26T14:53:32.000Z</time>
      </trkpt>
      <trkpt lat="43.45086" lon="6.59684">
        <ele>251.19999694824</ele>
        <time>2025-03-26T14:53:34.000Z</time>
      </trkpt>
      <trkpt lat="43.45086" lon="6.59682">
        <ele>251</ele>
        <time>2025-03-26T14:53:35.000Z</time>
      </trkpt>
      <trkpt lat="43.45088" lon="6.5968">
        <ele>250.39999389648</ele>
        <time>2025-03-26T14:53:37.000Z</time>
      </trkpt>
      <trkpt lat="43.4509" lon="6.59678">
        <ele>250.19999694824</ele>
        <time>2025-03-26T14:53:38.000Z</time>
      </trkpt>
      <trkpt lat="43.45094" lon="6.59676">
        <ele>249.80000305176</ele>
        <time>2025-03-26T14:53:41.000Z</time>
      </trkpt>
      <trkpt lat="43.45099" lon="6.59678">
        <ele>249.80000305176</ele>
        <time>2025-03-26T14:53:44.000Z</time>
      </trkpt>
      <trkpt lat="43.45106" lon="6.59677">
        <ele>249.60000610352</ele>
        <time>2025-03-26T14:53:49.000Z</time>
      </trkpt>
      <trkpt lat="43.45106" lon="6.59674">
        <ele>249</ele>
        <time>2025-03-26T14:53:51.000Z</time>
      </trkpt>
      <trkpt lat="43.45109" lon="6.59673">
        <ele>247.60000610352</ele>
        <time>2025-03-26T14:54:10.000Z</time>
      </trkpt>
      <trkpt lat="43.45135" lon="6.59673">
        <ele>246.80000305176</ele>
        <time>2025-03-26T14:54:35.000Z</time>
      </trkpt>
      <trkpt lat="43.45139" lon="6.5967">
        <ele>246.60000610352</ele>
        <time>2025-03-26T14:54:38.000Z</time>
      </trkpt>
      <trkpt lat="43.45141" lon="6.59667">
        <ele>246.60000610352</ele>
        <time>2025-03-26T14:54:46.000Z</time>
      </trkpt>
      <trkpt lat="43.45141" lon="6.59666">
        <ele>246.19999694824</ele>
        <time>2025-03-26T14:54:49.000Z</time>
      </trkpt>
      <trkpt lat="43.45141" lon="6.59665">
        <ele>245.80000305176</ele>
        <time>2025-03-26T14:54:51.000Z</time>
      </trkpt>
      <trkpt lat="43.45145" lon="6.59658">
        <ele>244.19999694824</ele>
        <time>2025-03-26T14:55:05.000Z</time>
      </trkpt>
      <trkpt lat="43.45148" lon="6.59658">
        <ele>243.39999389648</ele>
        <time>2025-03-26T14:55:08.000Z</time>
      </trkpt>
      <trkpt lat="43.45152" lon="6.59657">
        <ele>242.60000610352</ele>
        <time>2025-03-26T14:55:13.000Z</time>
      </trkpt>
      <trkpt lat="43.45154" lon="6.59656">
        <ele>242.39999389648</ele>
        <time>2025-03-26T14:55:15.000Z</time>
      </trkpt>
      <trkpt lat="43.45158" lon="6.59654">
        <ele>241.19999694824</ele>
        <time>2025-03-26T14:55:21.000Z</time>
      </trkpt>
      <trkpt lat="43.45159" lon="6.59653">
        <ele>241</ele>
        <time>2025-03-26T14:55:22.000Z</time>
      </trkpt>
      <trkpt lat="43.45161" lon="6.59651">
        <ele>239.80000305176</ele>
        <time>2025-03-26T14:55:26.000Z</time>
      </trkpt>
      <trkpt lat="43.45162" lon="6.59651">
        <ele>239.39999389648</ele>
        <time>2025-03-26T14:55:28.000Z</time>
      </trkpt>
      <trkpt lat="43.45164" lon="6.5965">
        <ele>239</ele>
        <time>2025-03-26T14:55:31.000Z</time>
      </trkpt>
      <trkpt lat="43.45164" lon="6.59649">
        <ele>239</ele>
        <time>2025-03-26T14:55:33.000Z</time>
      </trkpt>
      <trkpt lat="43.45166" lon="6.59648">
        <ele>238.80000305176</ele>
        <time>2025-03-26T14:55:35.000Z</time>
      </trkpt>
      <trkpt lat="43.4517" lon="6.59643">
        <ele>237.80000305176</ele>
        <time>2025-03-26T14:55:42.000Z</time>
      </trkpt>
      <trkpt lat="43.45172" lon="6.5964">
        <ele>236.60000610352</ele>
        <time>2025-03-26T14:55:45.000Z</time>
      </trkpt>
      <trkpt lat="43.45172" lon="6.59637">
        <ele>235.80000305176</ele>
        <time>2025-03-26T14:55:48.000Z</time>
      </trkpt>
      <trkpt lat="43.45172" lon="6.59636">
        <ele>235.60000610352</ele>
        <time>2025-03-26T14:55:49.000Z</time>
      </trkpt>
      <trkpt lat="43.45174" lon="6.59633">
        <ele>234.39999389648</ele>
        <time>2025-03-26T14:55:53.000Z</time>
      </trkpt>
      <trkpt lat="43.45174" lon="6.59633">
        <ele>234.19999694824</ele>
        <time>2025-03-26T14:55:54.000Z</time>
      </trkpt>
      <trkpt lat="43.45177" lon="6.59629">
        <ele>233.39999389648</ele>
        <time>2025-03-26T14:55:59.000Z</time>
      </trkpt>
      <trkpt lat="43.45177" lon="6.59629">
        <ele>233.19999694824</ele>
        <time>2025-03-26T14:56:00.000Z</time>
      </trkpt>
      <trkpt lat="43.45178" lon="6.59627">
        <ele>232</ele>
        <time>2025-03-26T14:56:06.000Z</time>
      </trkpt>
      <trkpt lat="43.45178" lon="6.59627">
        <ele>231.39999389648</ele>
        <time>2025-03-26T14:56:08.000Z</time>
      </trkpt>
      <trkpt lat="43.45176" lon="6.59624">
        <ele>230.60000610352</ele>
        <time>2025-03-26T14:56:12.000Z</time>
      </trkpt>
      <trkpt lat="43.45176" lon="6.59622">
        <ele>230.19999694824</ele>
        <time>2025-03-26T14:56:15.000Z</time>
      </trkpt>
      <trkpt lat="43.45175" lon="6.59621">
        <ele>229.39999389648</ele>
        <time>2025-03-26T14:56:22.000Z</time>
      </trkpt>
      <trkpt lat="43.45175" lon="6.59621">
        <ele>229</ele>
        <time>2025-03-26T14:56:27.000Z</time>
      </trkpt>
      <trkpt lat="43.45175" lon="6.59621">
        <ele>227.80000305176</ele>
        <time>2025-03-26T14:56:38.000Z</time>
      </trkpt>
      <trkpt lat="43.45177" lon="6.59612">
        <ele>226.80000305176</ele>
        <time>2025-03-26T14:57:12.000Z</time>
      </trkpt>
      <trkpt lat="43.45178" lon="6.59612">
        <ele>225.80000305176</ele>
        <time>2025-03-26T14:57:18.000Z</time>
      </trkpt>
      <trkpt lat="43.45183" lon="6.59609">
        <ele>224.80000305176</ele>
        <time>2025-03-26T14:57:35.000Z</time>
      </trkpt>
      <trkpt lat="43.45184" lon="6.59608">
        <ele>223.60000610352</ele>
        <time>2025-03-26T14:57:44.000Z</time>
      </trkpt>
      <trkpt lat="43.45184" lon="6.59607">
        <ele>222.39999389648</ele>
        <time>2025-03-26T14:57:49.000Z</time>
      </trkpt>
      <trkpt lat="43.45187" lon="6.596">
        <ele>221.19999694824</ele>
        <time>2025-03-26T14:57:56.000Z</time>
      </trkpt>
      <trkpt lat="43.45192" lon="6.59592">
        <ele>220</ele>
        <time>2025-03-26T14:58:02.000Z</time>
      </trkpt>
      <trkpt lat="43.45192" lon="6.59592">
        <ele>219.80000305176</ele>
        <time>2025-03-26T14:58:03.000Z</time>
      </trkpt>
      <trkpt lat="43.45195" lon="6.59588">
        <ele>219.19999694824</ele>
        <time>2025-03-26T14:58:07.000Z</time>
      </trkpt>
      <trkpt lat="43.45205" lon="6.59581">
        <ele>215.39999389648</ele>
        <time>2025-03-26T15:00:21.000Z</time>
      </trkpt>
      <trkpt lat="43.45204" lon="6.59578">
        <ele>214.19999694824</ele>
        <time>2025-03-26T15:00:27.000Z</time>
      </trkpt>
      <trkpt lat="43.45205" lon="6.59577">
        <ele>213.19999694824</ele>
        <time>2025-03-26T15:00:31.000Z</time>
      </trkpt>
      <trkpt lat="43.45206" lon="6.59577">
        <ele>213.19999694824</ele>
        <time>2025-03-26T15:00:32.000Z</time>
      </trkpt>
      <trkpt lat="43.45206" lon="6.59576">
        <ele>212.39999389648</ele>
        <time>2025-03-26T15:00:37.000Z</time>
      </trkpt>
      <trkpt lat="43.45206" lon="6.59576">
        <ele>212.19999694824</ele>
        <time>2025-03-26T15:00:39.000Z</time>
      </trkpt>
      <trkpt lat="43.45206" lon="6.59576">
        <ele>211.19999694824</ele>
        <time>2025-03-26T15:00:44.000Z</time>
      </trkpt>
      <trkpt lat="43.45206" lon="6.59576">
        <ele>210</ele>
        <time>2025-03-26T15:00:50.000Z</time>
      </trkpt>
      <trkpt lat="43.45207" lon="6.59576">
        <ele>209</ele>
        <time>2025-03-26T15:00:58.000Z</time>
      </trkpt>
      <trkpt lat="43.4521" lon="6.59575">
        <ele>208</ele>
        <time>2025-03-26T15:01:04.000Z</time>
      </trkpt>
      <trkpt lat="43.45213" lon="6.59573">
        <ele>207.39999389648</ele>
        <time>2025-03-26T15:01:12.000Z</time>
      </trkpt>
      <trkpt lat="43.45216" lon="6.59573">
        <ele>206.80000305176</ele>
        <time>2025-03-26T15:01:15.000Z</time>
      </trkpt>
      <trkpt lat="43.45217" lon="6.59573">
        <ele>206.39999389648</ele>
        <time>2025-03-26T15:01:16.000Z</time>
      </trkpt>
      <trkpt lat="43.45219" lon="6.59574">
        <ele>205.80000305176</ele>
        <time>2025-03-26T15:01:19.000Z</time>
      </trkpt>
      <trkpt lat="43.4522" lon="6.59574">
        <ele>205.39999389648</ele>
        <time>2025-03-26T15:01:22.000Z</time>
      </trkpt>
      <trkpt lat="43.45223" lon="6.59575">
        <ele>204.80000305176</ele>
        <time>2025-03-26T15:01:26.000Z</time>
      </trkpt>
      <trkpt lat="43.45224" lon="6.59576">
        <ele>204.60000610352</ele>
        <time>2025-03-26T15:01:27.000Z</time>
      </trkpt>
      <trkpt lat="43.45222" lon="6.59574">
        <ele>203.60000610352</ele>
        <time>2025-03-26T15:01:32.000Z</time>
      </trkpt>
      <trkpt lat="43.45226" lon="6.59572">
        <ele>202.39999389648</ele>
        <time>2025-03-26T15:01:38.000Z</time>
      </trkpt>
      <trkpt lat="43.45227" lon="6.59572">
        <ele>202.19999694824</ele>
        <time>2025-03-26T15:01:39.000Z</time>
      </trkpt>
      <trkpt lat="43.45228" lon="6.5957">
        <ele>201.39999389648</ele>
        <time>2025-03-26T15:01:43.000Z</time>
      </trkpt>
      <trkpt lat="43.45227" lon="6.59569">
        <ele>200.80000305176</ele>
        <time>2025-03-26T15:01:45.000Z</time>
      </trkpt>
      <trkpt lat="43.45228" lon="6.59567">
        <ele>200.19999694824</ele>
        <time>2025-03-26T15:01:49.000Z</time>
      </trkpt>
      <trkpt lat="43.45228" lon="6.59566">
        <ele>200.19999694824</ele>
        <time>2025-03-26T15:01:51.000Z</time>
      </trkpt>
      <trkpt lat="43.45231" lon="6.59562">
        <ele>200</ele>
        <time>2025-03-26T15:01:54.000Z</time>
      </trkpt>
      <trkpt lat="43.45232" lon="6.59562">
        <ele>199.80000305176</ele>
        <time>2025-03-26T15:01:55.000Z</time>
      </trkpt>
      <trkpt lat="43.45233" lon="6.5956">
        <ele>199.19999694824</ele>
        <time>2025-03-26T15:01:59.000Z</time>
      </trkpt>
      <trkpt lat="43.45234" lon="6.5956">
        <ele>199</ele>
        <time>2025-03-26T15:02:01.000Z</time>
      </trkpt>
      <trkpt lat="43.45234" lon="6.59555">
        <ele>195.60000610352</ele>
        <time>2025-03-26T15:02:18.000Z</time>
      </trkpt>
      <trkpt lat="43.45233" lon="6.59555">
        <ele>195.19999694824</ele>
        <time>2025-03-26T15:02:20.000Z</time>
      </trkpt>
      <trkpt lat="43.45233" lon="6.59555">
        <ele>194.60000610352</ele>
        <time>2025-03-26T15:02:24.000Z</time>
      </trkpt>
      <trkpt lat="43.45233" lon="6.59555">
        <ele>193.60000610352</ele>
        <time>2025-03-26T15:02:29.000Z</time>
      </trkpt>
      <trkpt lat="43.45233" lon="6.59555">
        <ele>192.80000305176</ele>
        <time>2025-03-26T15:02:33.000Z</time>
      </trkpt>
      <trkpt lat="43.45233" lon="6.5955">
        <ele>192.39999389648</ele>
        <time>2025-03-26T15:02:46.000Z</time>
      </trkpt>
      <trkpt lat="43.45233" lon="6.5955">
        <ele>191</ele>
        <time>2025-03-26T15:02:50.000Z</time>
      </trkpt>
      <trkpt lat="43.45236" lon="6.59548">
        <ele>189.80000305176</ele>
        <time>2025-03-26T15:02:59.000Z</time>
      </trkpt>
      <trkpt lat="43.45238" lon="6.59546">
        <ele>188.60000610352</ele>
        <time>2025-03-26T15:03:07.000Z</time>
      </trkpt>
      <trkpt lat="43.45241" lon="6.59544">
        <ele>187.39999389648</ele>
        <time>2025-03-26T15:03:14.000Z</time>
      </trkpt>
      <trkpt lat="43.45242" lon="6.59542">
        <ele>186.19999694824</ele>
        <time>2025-03-26T15:03:22.000Z</time>
      </trkpt>
      <trkpt lat="43.45243" lon="6.59539">
        <ele>185.19999694824</ele>
        <time>2025-03-26T15:03:30.000Z</time>
      </trkpt>
      <trkpt lat="43.45243" lon="6.59537">
        <ele>184.19999694824</ele>
        <time>2025-03-26T15:03:37.000Z</time>
      </trkpt>
      <trkpt lat="43.45243" lon="6.59532">
        <ele>183.80000305176</ele>
        <time>2025-03-26T15:03:41.000Z</time>
      </trkpt>
      <trkpt lat="43.45243" lon="6.59527">
        <ele>183</ele>
        <time>2025-03-26T15:03:45.000Z</time>
      </trkpt>
      <trkpt lat="43.45244" lon="6.59512">
        <ele>243.8</ele>
      </trkpt>
      <trkpt lat="43.45252" lon="6.59499">
        <ele>175</ele>
        <time>2025-03-26T15:05:13.000Z</time>
      </trkpt>
      <trkpt lat="43.45253" lon="6.59497">
        <ele>174.80000305176</ele>
        <time>2025-03-26T15:05:14.000Z</time>
      </trkpt>
      <trkpt lat="43.45256" lon="6.59499">
        <ele>174</ele>
        <time>2025-03-26T15:05:18.000Z</time>
      </trkpt>
      <trkpt lat="43.45258" lon="6.595">
        <ele>173.80000305176</ele>
        <time>2025-03-26T15:05:20.000Z</time>
      </trkpt>
      <trkpt lat="43.45258" lon="6.59501">
        <ele>173</ele>
        <time>2025-03-26T15:05:25.000Z</time>
      </trkpt>
      <trkpt lat="43.45259" lon="6.595">
        <ele>172.80000305176</ele>
        <time>2025-03-26T15:05:26.000Z</time>
      </trkpt>
      <trkpt lat="43.4526" lon="6.59497">
        <ele>171.80000305176</ele>
        <time>2025-03-26T15:05:30.000Z</time>
      </trkpt>
      <trkpt lat="43.45262" lon="6.59492">
        <ele>171.19999694824</ele>
        <time>2025-03-26T15:05:35.000Z</time>
      </trkpt>
      <trkpt lat="43.45261" lon="6.5949">
        <ele>171</ele>
        <time>2025-03-26T15:05:36.000Z</time>
      </trkpt>
      <trkpt lat="43.45261" lon="6.59488">
        <ele>171</ele>
        <time>2025-03-26T15:05:37.000Z</time>
      </trkpt>
      <trkpt lat="43.45261" lon="6.59487">
        <ele>170.60000610352</ele>
        <time>2025-03-26T15:05:38.000Z</time>
      </trkpt>
      <trkpt lat="43.45261" lon="6.59485">
        <ele>170.39999389648</ele>
        <time>2025-03-26T15:05:39.000Z</time>
      </trkpt>
      <trkpt lat="43.45262" lon="6.59482">
        <ele>169.80000305176</ele>
        <time>2025-03-26T15:05:41.000Z</time>
      </trkpt>
      <trkpt lat="43.45264" lon="6.59474">
        <ele>167.39999389648</ele>
        <time>2025-03-26T15:05:50.000Z</time>
      </trkpt>
      <trkpt lat="43.45263" lon="6.59473">
        <ele>167.19999694824</ele>
        <time>2025-03-26T15:05:51.000Z</time>
      </trkpt>
      <trkpt lat="43.45262" lon="6.59471">
        <ele>166.39999389648</ele>
        <time>2025-03-26T15:05:55.000Z</time>
      </trkpt>
      <trkpt lat="43.45263" lon="6.5947">
        <ele>166.19999694824</ele>
        <time>2025-03-26T15:05:56.000Z</time>
      </trkpt>
      <trkpt lat="43.45267" lon="6.59467">
        <ele>165.39999389648</ele>
        <time>2025-03-26T15:06:02.000Z</time>
      </trkpt>
      <trkpt lat="43.45267" lon="6.59466">
        <ele>164.60000610352</ele>
        <time>2025-03-26T15:06:04.000Z</time>
      </trkpt>
      <trkpt lat="43.45266" lon="6.59461">
        <ele>164.19999694824</ele>
        <time>2025-03-26T15:06:06.000Z</time>
      </trkpt>
      <trkpt lat="43.45267" lon="6.59458">
        <ele>163.80000305176</ele>
        <time>2025-03-26T15:06:08.000Z</time>
      </trkpt>
      <trkpt lat="43.4527" lon="6.59455">
        <ele>163.19999694824</ele>
        <time>2025-03-26T15:06:10.000Z</time>
      </trkpt>
      <trkpt lat="43.4527" lon="6.59454">
        <ele>162.80000305176</ele>
        <time>2025-03-26T15:06:11.000Z</time>
      </trkpt>
      <trkpt lat="43.45273" lon="6.59448">
        <ele>162.39999389648</ele>
        <time>2025-03-26T15:06:14.000Z</time>
      </trkpt>
      <trkpt lat="43.45273" lon="6.59447">
        <ele>161.80000305176</ele>
        <time>2025-03-26T15:06:17.000Z</time>
      </trkpt>
      <trkpt lat="43.45276" lon="6.59445">
        <ele>161.19999694824</ele>
        <time>2025-03-26T15:06:20.000Z</time>
      </trkpt>
      <trkpt lat="43.45277" lon="6.59444">
        <ele>160.80000305176</ele>
        <time>2025-03-26T15:06:22.000Z</time>
      </trkpt>
      <trkpt lat="43.45277" lon="6.59443">
        <ele>160.60000610352</ele>
        <time>2025-03-26T15:06:23.000Z</time>
      </trkpt>
      <trkpt lat="43.45276" lon="6.59437">
        <ele>160</ele>
        <time>2025-03-26T15:06:26.000Z</time>
      </trkpt>
      <trkpt lat="43.45274" lon="6.59434">
        <ele>160</ele>
        <time>2025-03-26T15:06:28.000Z</time>
      </trkpt>
      <trkpt lat="43.45273" lon="6.59434">
        <ele>160</ele>
        <time>2025-03-26T15:06:29.000Z</time>
      </trkpt>
      <trkpt lat="43.45269" lon="6.59432">
        <ele>159.60000610352</ele>
        <time>2025-03-26T15:06:32.000Z</time>
      </trkpt>
      <trkpt lat="43.45269" lon="6.59427">
        <ele>159.60000610352</ele>
        <time>2025-03-26T15:06:34.000Z</time>
      </trkpt>
      <trkpt lat="43.45261" lon="6.59417">
        <ele>159.80000305176</ele>
        <time>2025-03-26T15:06:39.000Z</time>
      </trkpt>
      <trkpt lat="43.45257" lon="6.59412">
        <ele>159.60000610352</ele>
        <time>2025-03-26T15:06:45.000Z</time>
      </trkpt>
      <trkpt lat="43.45256" lon="6.59411">
        <ele>159.60000610352</ele>
        <time>2025-03-26T15:06:46.000Z</time>
      </trkpt>
      <trkpt lat="43.45255" lon="6.59408">
        <ele>159.60000610352</ele>
        <time>2025-03-26T15:06:48.000Z</time>
      </trkpt>
      <trkpt lat="43.45254" lon="6.59401">
        <ele>159.60000610352</ele>
        <time>2025-03-26T15:06:52.000Z</time>
      </trkpt>
      <trkpt lat="43.45256" lon="6.59399">
        <ele>159.19999694824</ele>
        <time>2025-03-26T15:06:53.000Z</time>
      </trkpt>
      <trkpt lat="43.45258" lon="6.59396">
        <ele>158.60000610352</ele>
        <time>2025-03-26T15:06:55.000Z</time>
      </trkpt>
      <trkpt lat="43.4526" lon="6.59396">
        <ele>158.19999694824</ele>
        <time>2025-03-26T15:06:57.000Z</time>
      </trkpt>
      <trkpt lat="43.45268" lon="6.594">
        <ele>158</ele>
        <time>2025-03-26T15:07:06.000Z</time>
      </trkpt>
      <trkpt lat="43.45276" lon="6.594">
        <ele>221.5</ele>
        <time>2025-03-26T15:07:13.000Z</time>
      </trkpt>
      <trkpt lat="43.45286" lon="6.59407">
        <ele>157.19999694824</ele>
        <time>2025-03-26T15:07:20.000Z</time>
      </trkpt>
      <trkpt lat="43.4529" lon="6.59407">
        <ele>157</ele>
        <time>2025-03-26T15:07:24.000Z</time>
      </trkpt>
      <trkpt lat="43.4529" lon="6.59411">
        <ele>156.39999389648</ele>
        <time>2025-03-26T15:07:26.000Z</time>
      </trkpt>
      <trkpt lat="43.45292" lon="6.59412">
        <ele>156.39999389648</ele>
        <time>2025-03-26T15:07:27.000Z</time>
      </trkpt>
      <trkpt lat="43.45299" lon="6.5942">
        <ele>156.19999694824</ele>
        <time>2025-03-26T15:07:36.000Z</time>
      </trkpt>
      <trkpt lat="43.453" lon="6.59419">
        <ele>156</ele>
        <time>2025-03-26T15:07:38.000Z</time>
      </trkpt>
      <trkpt lat="43.45303" lon="6.59418">
        <ele>156</ele>
        <time>2025-03-26T15:07:40.000Z</time>
      </trkpt>
      <trkpt lat="43.45311" lon="6.59421">
        <ele>155.19999694824</ele>
        <time>2025-03-26T15:07:47.000Z</time>
      </trkpt>
      <trkpt lat="43.45337" lon="6.59419">
        <ele>218.9</ele>
      </trkpt>
      <trkpt lat="43.45349" lon="6.59405">
        <ele>222.1</ele>
      </trkpt>
      <trkpt lat="43.45378" lon="6.59408">
        <ele>228.3</ele>
        <time>2025-03-26T15:07:54.000Z</time>
      </trkpt>
      <trkpt lat="43.45412" lon="6.595">
        <ele>205.2</ele>
      </trkpt>
      <trkpt lat="43.4542" lon="6.59573">
        <ele>186.3</ele>
      </trkpt>
      <trkpt lat="43.45439" lon="6.59586">
        <ele>180.1</ele>
      </trkpt>
      <trkpt lat="43.4545" lon="6.59641">
        <ele>105.40000152588</ele>
        <time>2025-03-26T15:13:16.000Z</time>
      </trkpt>
      <trkpt lat="43.45453" lon="6.59643">
        <ele>104.40000152588</ele>
        <time>2025-03-26T15:13:19.000Z</time>
      </trkpt>
      <trkpt lat="43.45454" lon="6.59644">
        <ele>104.80000305176</ele>
        <time>2025-03-26T15:13:25.000Z</time>
      </trkpt>
      <trkpt lat="43.45456" lon="6.59646">
        <ele>104.40000152588</ele>
        <time>2025-03-26T15:13:31.000Z</time>
      </trkpt>
      <trkpt lat="43.45457" lon="6.59648">
        <ele>104.19999694824</ele>
        <time>2025-03-26T15:13:36.000Z</time>
      </trkpt>
      <trkpt lat="43.45461" lon="6.59649">
        <ele>103.19999694824</ele>
        <time>2025-03-26T15:13:44.000Z</time>
      </trkpt>
      <trkpt lat="43.45461" lon="6.59649">
        <ele>103</ele>
        <time>2025-03-26T15:13:45.000Z</time>
      </trkpt>
      <trkpt lat="43.45461" lon="6.59651">
        <ele>102</ele>
        <time>2025-03-26T15:13:51.000Z</time>
      </trkpt>
      <trkpt lat="43.45464" lon="6.59656">
        <ele>100.80000305176</ele>
        <time>2025-03-26T15:13:56.000Z</time>
      </trkpt>
      <trkpt lat="43.45465" lon="6.59657">
        <ele>100.40000152588</ele>
        <time>2025-03-26T15:13:58.000Z</time>
      </trkpt>
      <trkpt lat="43.45465" lon="6.59658">
        <ele>100.19999694824</ele>
        <time>2025-03-26T15:13:59.000Z</time>
      </trkpt>
      <trkpt lat="43.45467" lon="6.59659">
        <ele>99.800003051758</ele>
        <time>2025-03-26T15:14:02.000Z</time>
      </trkpt>
      <trkpt lat="43.4547" lon="6.59664">
        <ele>98.599998474121</ele>
        <time>2025-03-26T15:14:09.000Z</time>
      </trkpt>
      <trkpt lat="43.45474" lon="6.5967">
        <ele>96.800003051758</ele>
        <time>2025-03-26T15:14:23.000Z</time>
      </trkpt>
      <trkpt lat="43.45476" lon="6.59676">
        <ele>95.199996948242</ele>
        <time>2025-03-26T15:14:32.000Z</time>
      </trkpt>
      <trkpt lat="43.45478" lon="6.5968">
        <ele>94.199996948242</ele>
        <time>2025-03-26T15:14:38.000Z</time>
      </trkpt>
      <trkpt lat="43.4548" lon="6.59683">
        <ele>93.400001525879</ele>
        <time>2025-03-26T15:14:45.000Z</time>
      </trkpt>
      <trkpt lat="43.45481" lon="6.59685">
        <ele>93.199996948242</ele>
        <time>2025-03-26T15:14:48.000Z</time>
      </trkpt>
      <trkpt lat="43.45483" lon="6.59687">
        <ele>92.400001525879</ele>
        <time>2025-03-26T15:14:51.000Z</time>
      </trkpt>
      <trkpt lat="43.45483" lon="6.59688">
        <ele>92</ele>
        <time>2025-03-26T15:14:53.000Z</time>
      </trkpt>
      <trkpt lat="43.45484" lon="6.5969">
        <ele>91</ele>
        <time>2025-03-26T15:14:58.000Z</time>
      </trkpt>
      <trkpt lat="43.45485" lon="6.59696">
        <ele>90.400001525879</ele>
        <time>2025-03-26T15:15:04.000Z</time>
      </trkpt>
      <trkpt lat="43.45486" lon="6.59698">
        <ele>90.199996948242</ele>
        <time>2025-03-26T15:15:06.000Z</time>
      </trkpt>
      <trkpt lat="43.45487" lon="6.59698">
        <ele>90</ele>
        <time>2025-03-26T15:15:08.000Z</time>
      </trkpt>
      <trkpt lat="43.45487" lon="6.59698">
        <ele>89.800003051758</ele>
        <time>2025-03-26T15:15:09.000Z</time>
      </trkpt>
      <trkpt lat="43.45487" lon="6.59698">
        <ele>89.599998474121</ele>
        <time>2025-03-26T15:15:10.000Z</time>
      </trkpt>
      <trkpt lat="43.45487" lon="6.59698">
        <ele>89.199996948242</ele>
        <time>2025-03-26T15:15:13.000Z</time>
      </trkpt>
      <trkpt lat="43.45487" lon="6.59699">
        <ele>89</ele>
        <time>2025-03-26T15:15:14.000Z</time>
      </trkpt>
      <trkpt lat="43.45487" lon="6.59702">
        <ele>87.800003051758</ele>
        <time>2025-03-26T15:15:19.000Z</time>
      </trkpt>
      <trkpt lat="43.45488" lon="6.59703">
        <ele>86.800003051758</ele>
        <time>2025-03-26T15:15:24.000Z</time>
      </trkpt>
      <trkpt lat="43.4549" lon="6.59705">
        <ele>86.599998474121</ele>
        <time>2025-03-26T15:15:26.000Z</time>
      </trkpt>
      <trkpt lat="43.45493" lon="6.59707">
        <ele>85.400001525879</ele>
        <time>2025-03-26T15:15:31.000Z</time>
      </trkpt>
      <trkpt lat="43.45493" lon="6.59708">
        <ele>85.199996948242</ele>
        <time>2025-03-26T15:15:32.000Z</time>
      </trkpt>
      <trkpt lat="43.45495" lon="6.59709">
        <ele>84.599998474121</ele>
        <time>2025-03-26T15:15:38.000Z</time>
      </trkpt>
      <trkpt lat="43.45496" lon="6.59708">
        <ele>84.400001525879</ele>
        <time>2025-03-26T15:15:39.000Z</time>
      </trkpt>
      <trkpt lat="43.45503" lon="6.59719">
        <ele>144.2</ele>
        <time>2025-03-26T15:16:04.000Z</time>
      </trkpt>
      <trkpt lat="43.45507" lon="6.59739">
        <ele>140</ele>
      </trkpt>
      <trkpt lat="43.45521" lon="6.59749">
        <ele>71.599998474121</ele>
        <time>2025-03-26T15:16:58.000Z</time>
      </trkpt>
      <trkpt lat="43.45522" lon="6.59752">
        <ele>70.400001525879</ele>
        <time>2025-03-26T15:17:05.000Z</time>
      </trkpt>
      <trkpt lat="43.45532" lon="6.59766">
        <ele>62.599998474121</ele>
        <time>2025-03-26T15:17:47.000Z</time>
      </trkpt>
      <trkpt lat="43.45534" lon="6.59767">
        <ele>62</ele>
        <time>2025-03-26T15:17:50.000Z</time>
      </trkpt>
      <trkpt lat="43.45536" lon="6.59768">
        <ele>61.400001525879</ele>
        <time>2025-03-26T15:17:54.000Z</time>
      </trkpt>
      <trkpt lat="43.45538" lon="6.59769">
        <ele>61.400001525879</ele>
        <time>2025-03-26T15:17:57.000Z</time>
      </trkpt>
      <trkpt lat="43.45543" lon="6.59767">
        <ele>122.4</ele>
        <time>2025-03-26T15:18:02.000Z</time>
      </trkpt>
      <trkpt lat="43.4555" lon="6.59769">
        <ele>56.400001525879</ele>
        <time>2025-03-26T15:18:20.000Z</time>
      </trkpt>
      <trkpt lat="43.45564" lon="6.59782">
        <ele>50.799999237061</ele>
        <time>2025-03-26T15:18:51.000Z</time>
      </trkpt>
      <trkpt lat="43.45581" lon="6.59795">
        <ele>44.799999237061</ele>
        <time>2025-03-26T15:19:14.000Z</time>
      </trkpt>
      <trkpt lat="43.45582" lon="6.59794">
        <ele>44.200000762939</ele>
        <time>2025-03-26T15:19:16.000Z</time>
      </trkpt>
      <trkpt lat="43.45583" lon="6.59794">
        <ele>43.799999237061</ele>
        <time>2025-03-26T15:19:20.000Z</time>
      </trkpt>
      <trkpt lat="43.45583" lon="6.59794">
        <ele>44</ele>
        <time>2025-03-26T15:19:22.000Z</time>
      </trkpt>
      <trkpt lat="43.45584" lon="6.59797">
        <ele>43.599998474121</ele>
        <time>2025-03-26T15:19:30.000Z</time>
      </trkpt>
      <trkpt lat="43.45586" lon="6.59798">
        <ele>43.400001525879</ele>
        <time>2025-03-26T15:19:32.000Z</time>
      </trkpt>
      <trkpt lat="43.45591" lon="6.59799">
        <ele>42.400001525879</ele>
        <time>2025-03-26T15:19:45.000Z</time>
      </trkpt>
      <trkpt lat="43.45597" lon="6.59798">
        <ele>41.200000762939</ele>
        <time>2025-03-26T15:19:52.000Z</time>
      </trkpt>
      <trkpt lat="43.45598" lon="6.59797">
        <ele>40.400001525879</ele>
        <time>2025-03-26T15:19:54.000Z</time>
      </trkpt>
      <trkpt lat="43.45604" lon="6.59796">
        <ele>39.400001525879</ele>
        <time>2025-03-26T15:20:02.000Z</time>
      </trkpt>
      <trkpt lat="43.45604" lon="6.59796">
        <ele>39.200000762939</ele>
        <time>2025-03-26T15:20:03.000Z</time>
      </trkpt>
      <trkpt lat="43.4561" lon="6.59795">
        <ele>37.400001525879</ele>
        <time>2025-03-26T15:20:13.000Z</time>
      </trkpt>
      <trkpt lat="43.45612" lon="6.59797">
        <ele>37.200000762939</ele>
        <time>2025-03-26T15:20:15.000Z</time>
      </trkpt>
      <trkpt lat="43.45613" lon="6.59796">
        <ele>36.799999237061</ele>
        <time>2025-03-26T15:20:18.000Z</time>
      </trkpt>
      <trkpt lat="43.45618" lon="6.59793">
        <ele>36</ele>
        <time>2025-03-26T15:20:24.000Z</time>
      </trkpt>
      <trkpt lat="43.45626" lon="6.5979">
        <ele>36</ele>
        <time>2025-03-26T15:20:31.000Z</time>
      </trkpt>
      <trkpt lat="43.45628" lon="6.59787">
        <ele>96.8</ele>
        <time>2025-03-26T15:20:39.000Z</time>
      </trkpt>
      <trkpt lat="43.45645" lon="6.59784">
        <ele>35</ele>
        <time>2025-03-26T15:20:48.000Z</time>
      </trkpt>
      <trkpt lat="43.45645" lon="6.59785">
        <ele>35</ele>
        <time>2025-03-26T15:20:49.000Z</time>
      </trkpt>
      <trkpt lat="43.45653" lon="6.59787">
        <ele>34</ele>
        <time>2025-03-26T15:20:56.000Z</time>
      </trkpt>
      <trkpt lat="43.45658" lon="6.59791">
        <ele>32.799999237061</ele>
        <time>2025-03-26T15:21:02.000Z</time>
      </trkpt>
      <trkpt lat="43.4566" lon="6.59792">
        <ele>32.400001525879</ele>
        <time>2025-03-26T15:21:04.000Z</time>
      </trkpt>
      <trkpt lat="43.45663" lon="6.59793">
        <ele>31.799999237061</ele>
        <time>2025-03-26T15:21:08.000Z</time>
      </trkpt>
      <trkpt lat="43.45667" lon="6.59792">
        <ele>31.200000762939</ele>
        <time>2025-03-26T15:21:12.000Z</time>
      </trkpt>
      <trkpt lat="43.45668" lon="6.59792">
        <ele>30.799999237061</ele>
        <time>2025-03-26T15:21:14.000Z</time>
      </trkpt>
      <trkpt lat="43.45669" lon="6.59792">
        <ele>30.60000038147</ele>
        <time>2025-03-26T15:21:15.000Z</time>
      </trkpt>
      <trkpt lat="43.45677" lon="6.59797">
        <ele>29.39999961853</ele>
        <time>2025-03-26T15:21:21.000Z</time>
      </trkpt>
      <trkpt lat="43.45682" lon="6.59797">
        <ele>28.39999961853</ele>
        <time>2025-03-26T15:21:26.000Z</time>
      </trkpt>
      <trkpt lat="43.45686" lon="6.59798">
        <ele>27.39999961853</ele>
        <time>2025-03-26T15:21:31.000Z</time>
      </trkpt>
      <trkpt lat="43.45686" lon="6.59798">
        <ele>27.200000762939</ele>
        <time>2025-03-26T15:21:32.000Z</time>
      </trkpt>
      <trkpt lat="43.45685" lon="6.59799">
        <ele>26.799999237061</ele>
        <time>2025-03-26T15:21:38.000Z</time>
      </trkpt>
      <trkpt lat="43.45699" lon="6.59794">
        <ele>25.200000762939</ele>
        <time>2025-03-26T15:22:10.000Z</time>
      </trkpt>
      <trkpt lat="43.45703" lon="6.5979">
        <ele>24.39999961853</ele>
        <time>2025-03-26T15:22:16.000Z</time>
      </trkpt>
      <trkpt lat="43.45705" lon="6.5979">
        <ele>24.200000762939</ele>
        <time>2025-03-26T15:22:17.000Z</time>
      </trkpt>
      <trkpt lat="43.45706" lon="6.59791">
        <ele>24</ele>
        <time>2025-03-26T15:22:18.000Z</time>
      </trkpt>
      <trkpt lat="43.45712" lon="6.59792">
        <ele>23</ele>
        <time>2025-03-26T15:22:23.000Z</time>
      </trkpt>
      <trkpt lat="43.45713" lon="6.59792">
        <ele>22.799999237061</ele>
        <time>2025-03-26T15:22:24.000Z</time>
      </trkpt>
      <trkpt lat="43.45715" lon="6.59791">
        <ele>21.799999237061</ele>
        <time>2025-03-26T15:22:27.000Z</time>
      </trkpt>
      <trkpt lat="43.45718" lon="6.59791">
        <ele>21.200000762939</ele>
        <time>2025-03-26T15:22:30.000Z</time>
      </trkpt>
      <trkpt lat="43.4572" lon="6.5979">
        <ele>20.799999237061</ele>
        <time>2025-03-26T15:22:32.000Z</time>
      </trkpt>
      <trkpt lat="43.45721" lon="6.5979">
        <ele>20.60000038147</ele>
        <time>2025-03-26T15:22:33.000Z</time>
      </trkpt>
      <trkpt lat="43.45733" lon="6.59781">
        <ele>81.2</ele>
        <time>2025-03-26T15:22:46.000Z</time>
      </trkpt>
      <trkpt lat="43.45739" lon="6.59786">
        <ele>77.4</ele>
        <time>2025-03-26T15:23:04.000Z</time>
      </trkpt>
      <trkpt lat="43.45743" lon="6.59795">
        <ele>13</ele>
        <time>2025-03-26T15:23:14.000Z</time>
      </trkpt>
      <trkpt lat="43.45747" lon="6.59794">
        <ele>11.800000190735</ele>
        <time>2025-03-26T15:23:20.000Z</time>
      </trkpt>
      <trkpt lat="43.45749" lon="6.59792">
        <ele>11</ele>
        <time>2025-03-26T15:23:22.000Z</time>
      </trkpt>
      <trkpt lat="43.4575" lon="6.59791">
        <ele>10.800000190735</ele>
        <time>2025-03-26T15:23:23.000Z</time>
      </trkpt>
      <trkpt lat="43.45757" lon="6.59791">
        <ele>9.6000003814697</ele>
        <time>2025-03-26T15:23:31.000Z</time>
      </trkpt>
      <trkpt lat="43.45759" lon="6.59789">
        <ele>9</ele>
        <time>2025-03-26T15:23:34.000Z</time>
      </trkpt>
      <trkpt lat="43.4576" lon="6.59788">
        <ele>8.3999996185303</ele>
        <time>2025-03-26T15:23:36.000Z</time>
      </trkpt>
      <trkpt lat="43.45763" lon="6.59787">
        <ele>8.1999998092651</ele>
        <time>2025-03-26T15:23:38.000Z</time>
      </trkpt>
      <trkpt lat="43.45783" lon="6.59775">
        <ele>65.7</ele>
      </trkpt>
      <trkpt lat="43.45806" lon="6.59772">
        <ele>61.2</ele>
      </trkpt>
      <trkpt lat="43.45822" lon="6.59764">
        <ele>58.4</ele>
        <time>2025-03-26T15:31:24.000Z</time>
      </trkpt>
      <trkpt lat="43.4583" lon="6.59746">
        <ele>56.6</ele>
      </trkpt>
      <trkpt lat="43.45839" lon="6.59712">
        <ele>54.3</ele>
        <time>2025-03-26T15:32:16.000Z</time>
      </trkpt>
      <trkpt lat="43.45848" lon="6.59686">
        <ele>53</ele>
      </trkpt>
      <trkpt lat="43.45864" lon="6.59665">
        <ele>49</ele>
      </trkpt>
      <trkpt lat="43.45873" lon="6.59641">
        <ele>49.2</ele>
      </trkpt>
      <trkpt lat="43.45881" lon="6.59623">
        <ele>-10.800000190735</ele>
        <time>2025-03-26T15:34:05.000Z</time>
      </trkpt>
      <trkpt lat="43.45883" lon="6.59616">
        <ele>-11.60000038147</ele>
        <time>2025-03-26T15:34:11.000Z</time>
      </trkpt>
      <trkpt lat="43.45881" lon="6.59606">
        <ele>45.4</ele>
      </trkpt>
      <trkpt lat="43.45896" lon="6.596">
        <ele>-16.200000762939</ele>
        <time>2025-03-26T15:34:34.000Z</time>
      </trkpt>
      <trkpt lat="43.45897" lon="6.59595">
        <ele>-17</ele>
        <time>2025-03-26T15:34:38.000Z</time>
      </trkpt>
      <trkpt lat="43.45896" lon="6.59592">
        <ele>-17.200000762939</ele>
        <time>2025-03-26T15:34:40.000Z</time>
      </trkpt>
      <trkpt lat="43.45895" lon="6.59588">
        <ele>-17.39999961853</ele>
        <time>2025-03-26T15:34:42.000Z</time>
      </trkpt>
      <trkpt lat="43.45894" lon="6.59575">
        <ele>-17.60000038147</ele>
        <time>2025-03-26T15:34:52.000Z</time>
      </trkpt>
      <trkpt lat="43.45894" lon="6.59575">
        <ele>-17.60000038147</ele>
        <time>2025-03-26T15:34:53.000Z</time>
      </trkpt>
      <trkpt lat="43.45893" lon="6.59571">
        <ele>40.2</ele>
      </trkpt>
      <trkpt lat="43.45893" lon="6.59569">
        <ele>-17.39999961853</ele>
        <time>2025-03-26T15:35:00.000Z</time>
      </trkpt>
      <trkpt lat="43.45891" lon="6.59556">
        <ele>-16.200000762939</ele>
        <time>2025-03-26T15:35:08.000Z</time>
      </trkpt>
      <trkpt lat="43.45891" lon="6.59551">
        <ele>-15.39999961853</ele>
        <time>2025-03-26T15:35:12.000Z</time>
      </trkpt>
      <trkpt lat="43.45887" lon="6.59545">
        <ele>-15</ele>
        <time>2025-03-26T15:35:18.000Z</time>
      </trkpt>
      <trkpt lat="43.45884" lon="6.5954">
        <ele>-14.199999809265</ele>
        <time>2025-03-26T15:35:22.000Z</time>
      </trkpt>
      <trkpt lat="43.45882" lon="6.59539">
        <ele>-14</ele>
        <time>2025-03-26T15:35:24.000Z</time>
      </trkpt>
      <trkpt lat="43.4588" lon="6.59539">
        <ele>-13.39999961853</ele>
        <time>2025-03-26T15:35:28.000Z</time>
      </trkpt>
      <trkpt lat="43.45879" lon="6.5954">
        <ele>-13.199999809265</ele>
        <time>2025-03-26T15:35:29.000Z</time>
      </trkpt>
      <trkpt lat="43.4587" lon="6.59535">
        <ele>-10.800000190735</ele>
        <time>2025-03-26T15:35:40.000Z</time>
      </trkpt>
      <trkpt lat="43.45857" lon="6.59499">
        <ele>46.5</ele>
      </trkpt>
      <trkpt lat="43.45837" lon="6.59462">
        <ele>50.4</ele>
      </trkpt>
      <trkpt lat="43.4584" lon="6.59447">
        <ele>49.3</ele>
      </trkpt>
      <trkpt lat="43.45846" lon="6.59435">
        <ele>48.4</ele>
      </trkpt>
      <trkpt lat="43.45843" lon="6.59423">
        <ele>49.9</ele>
      </trkpt>
      <trkpt lat="43.45816" lon="6.59428">
        <ele>58.2</ele>
      </trkpt>
      <trkpt lat="43.45805" lon="6.59435">
        <ele>61.2</ele>
      </trkpt>
      <trkpt lat="43.45782" lon="6.59433">
        <ele>18</ele>
        <time>2025-03-26T16:42:13.000Z</time>
      </trkpt>
      <trkpt lat="43.45771" lon="6.59423">
        <ele>81.4</ele>
      </trkpt>
      <trkpt lat="43.45778" lon="6.59404">
        <ele>10.39999961853</ele>
        <time>2025-03-26T16:45:25.000Z</time>
      </trkpt>
      <trkpt lat="43.4582" lon="6.59294">
        <ele>94.2</ele>
      </trkpt>
      <trkpt lat="43.45828" lon="6.59293">
        <ele>81.2</ele>
      </trkpt>
      <trkpt lat="43.45843" lon="6.5932">
        <ele>61.2</ele>
      </trkpt>
      <trkpt lat="43.45849" lon="6.59325">
        <ele>56.3</ele>
      </trkpt>
      <trkpt lat="43.45854" lon="6.5932">
        <ele>54.8</ele>
      </trkpt>
      <trkpt lat="43.45849" lon="6.59291">
        <ele>61.7</ele>
        <time>2025-03-26T16:53:45.000Z</time>
      </trkpt>
      <trkpt lat="43.45889" lon="6.59225">
        <ele>57.6</ele>
      </trkpt>
      <trkpt lat="43.45893" lon="6.59236">
        <ele>55.2</ele>
      </trkpt>
      <trkpt lat="43.45898" lon="6.59234">
        <ele>54.6</ele>
      </trkpt>
      <trkpt lat="43.45891" lon="6.59275">
        <ele>49.7</ele>
      </trkpt>
      <trkpt lat="43.45889" lon="6.59291">
        <ele>48.1</ele>
      </trkpt>
      <trkpt lat="43.4589" lon="6.59324">
        <ele>43</ele>
        <time>2025-03-26T16:53:47.000Z</time>
      </trkpt>
      <trkpt lat="43.45899" lon="6.59326">
        <ele>40.8</ele>
        <time>2025-03-26T16:54:26.000Z</time>
      </trkpt>
      <trkpt lat="43.45904" lon="6.59319">
        <ele>-14.800000190735</ele>
        <time>2025-03-26T16:54:30.000Z</time>
      </trkpt>
      <trkpt lat="43.45904" lon="6.59319">
        <ele>-15</ele>
        <time>2025-03-26T16:54:31.000Z</time>
      </trkpt>
      <trkpt lat="43.45905" lon="6.59317">
        <ele>-15.39999961853</ele>
        <time>2025-03-26T16:54:33.000Z</time>
      </trkpt>
      <trkpt lat="43.45913" lon="6.59314">
        <ele>-17</ele>
        <time>2025-03-26T16:54:41.000Z</time>
      </trkpt>
      <trkpt lat="43.45918" lon="6.5931">
        <ele>-17.60000038147</ele>
        <time>2025-03-26T16:54:45.000Z</time>
      </trkpt>
      <trkpt lat="43.45919" lon="6.59309">
        <ele>-18</ele>
        <time>2025-03-26T16:54:48.000Z</time>
      </trkpt>
      <trkpt lat="43.4592" lon="6.59306">
        <ele>-18</ele>
        <time>2025-03-26T16:54:50.000Z</time>
      </trkpt>
      <trkpt lat="43.45941" lon="6.59286">
        <ele>33.9</ele>
      </trkpt>
      <trkpt lat="43.45961" lon="6.59276">
        <ele>-25.39999961853</ele>
        <time>2025-03-26T16:55:39.000Z</time>
      </trkpt>
      <trkpt lat="43.45962" lon="6.59276">
        <ele>-25.39999961853</ele>
        <time>2025-03-26T16:55:40.000Z</time>
      </trkpt>
      <trkpt lat="43.45964" lon="6.59279">
        <ele>-25.799999237061</ele>
        <time>2025-03-26T16:55:43.000Z</time>
      </trkpt>
      <trkpt lat="43.45964" lon="6.5928">
        <ele>-25.799999237061</ele>
        <time>2025-03-26T16:55:44.000Z</time>
      </trkpt>
      <trkpt lat="43.45966" lon="6.59281">
        <ele>-26</ele>
        <time>2025-03-26T16:55:46.000Z</time>
      </trkpt>
      <trkpt lat="43.4597" lon="6.59285">
        <ele>-26.60000038147</ele>
        <time>2025-03-26T16:55:50.000Z</time>
      </trkpt>
      <trkpt lat="43.45971" lon="6.5929">
        <ele>-26.799999237061</ele>
        <time>2025-03-26T16:55:52.000Z</time>
      </trkpt>
      <trkpt lat="43.45974" lon="6.59301">
        <ele>-27.200000762939</ele>
        <time>2025-03-26T16:55:59.000Z</time>
      </trkpt>
      <trkpt lat="43.45976" lon="6.59303">
        <ele>-27.39999961853</ele>
        <time>2025-03-26T16:56:02.000Z</time>
      </trkpt>
      <trkpt lat="43.45977" lon="6.59304">
        <ele>-27.799999237061</ele>
        <time>2025-03-26T16:56:04.000Z</time>
      </trkpt>
      <trkpt lat="43.45979" lon="6.59307">
        <ele>-29</ele>
        <time>2025-03-26T16:56:08.000Z</time>
      </trkpt>
      <trkpt lat="43.45982" lon="6.59309">
        <ele>-29.60000038147</ele>
        <time>2025-03-26T16:56:11.000Z</time>
      </trkpt>
      <trkpt lat="43.45982" lon="6.59311">
        <ele>-29.799999237061</ele>
        <time>2025-03-26T16:56:13.000Z</time>
      </trkpt>
      <trkpt lat="43.45986" lon="6.59314">
        <ele>-30</ele>
        <time>2025-03-26T16:56:16.000Z</time>
      </trkpt>
      <trkpt lat="43.45987" lon="6.59314">
        <ele>-30.200000762939</ele>
        <time>2025-03-26T16:56:17.000Z</time>
      </trkpt>
      <trkpt lat="43.45991" lon="6.59319">
        <ele>24.5</ele>
      </trkpt>
      <trkpt lat="43.45997" lon="6.59318">
        <ele>-31</ele>
        <time>2025-03-26T16:56:25.000Z</time>
      </trkpt>
      <trkpt lat="43.45999" lon="6.59319">
        <ele>-31.60000038147</ele>
        <time>2025-03-26T16:56:27.000Z</time>
      </trkpt>
      <trkpt lat="43.46001" lon="6.59318">
        <ele>-31.799999237061</ele>
        <time>2025-03-26T16:56:29.000Z</time>
      </trkpt>
      <trkpt lat="43.46003" lon="6.59315">
        <ele>-32.200000762939</ele>
        <time>2025-03-26T16:56:31.000Z</time>
      </trkpt>
      <trkpt lat="43.46005" lon="6.59302">
        <ele>-32.599998474121</ele>
        <time>2025-03-26T16:56:38.000Z</time>
      </trkpt>
      <trkpt lat="43.46007" lon="6.59294">
        <ele>-33.200000762939</ele>
        <time>2025-03-26T16:56:44.000Z</time>
      </trkpt>
      <trkpt lat="43.46008" lon="6.59292">
        <ele>-33.200000762939</ele>
        <time>2025-03-26T16:56:45.000Z</time>
      </trkpt>
      <trkpt lat="43.46008" lon="6.59284">
        <ele>22.8</ele>
        <time>2025-03-26T16:56:50.000Z</time>
      </trkpt>
      <trkpt lat="43.46014" lon="6.59274">
        <ele>-34.599998474121</ele>
        <time>2025-03-26T16:56:58.000Z</time>
      </trkpt>
      <trkpt lat="43.46018" lon="6.59273">
        <ele>-35.200000762939</ele>
        <time>2025-03-26T16:57:02.000Z</time>
      </trkpt>
      <trkpt lat="43.46019" lon="6.59272">
        <ele>-35.599998474121</ele>
        <time>2025-03-26T16:57:03.000Z</time>
      </trkpt>
      <trkpt lat="43.46024" lon="6.5927">
        <ele>-36.599998474121</ele>
        <time>2025-03-26T16:57:08.000Z</time>
      </trkpt>
      <trkpt lat="43.46025" lon="6.5927">
        <ele>-36.799999237061</ele>
        <time>2025-03-26T16:57:09.000Z</time>
      </trkpt>
      <trkpt lat="43.46027" lon="6.5927">
        <ele>-37</ele>
        <time>2025-03-26T16:57:10.000Z</time>
      </trkpt>
      <trkpt lat="43.46037" lon="6.5927">
        <ele>-37.799999237061</ele>
        <time>2025-03-26T16:57:16.000Z</time>
      </trkpt>
      <trkpt lat="43.4604" lon="6.59268">
        <ele>-38</ele>
        <time>2025-03-26T16:57:18.000Z</time>
      </trkpt>
      <trkpt lat="43.46063" lon="6.59257">
        <ele>17</ele>
        <time>2025-03-26T16:57:24.000Z</time>
      </trkpt>
      <trkpt lat="43.46056" lon="6.59289">
        <ele>-38.799999237061</ele>
        <time>2025-03-26T16:57:39.000Z</time>
      </trkpt>
      <trkpt lat="43.4605" lon="6.59331">
        <ele>-36.599998474121</ele>
        <time>2025-03-26T16:58:06.000Z</time>
      </trkpt>
      <trkpt lat="43.46046" lon="6.59347">
        <ele>-35.799999237061</ele>
        <time>2025-03-26T16:58:17.000Z</time>
      </trkpt>
      <trkpt lat="43.46046" lon="6.59348">
        <ele>-35.599998474121</ele>
        <time>2025-03-26T16:58:18.000Z</time>
      </trkpt>
      <trkpt lat="43.46044" lon="6.59355">
        <ele>-35.200000762939</ele>
        <time>2025-03-26T16:58:25.000Z</time>
      </trkpt>
      <trkpt lat="43.46042" lon="6.59358">
        <ele>-34.799999237061</ele>
        <time>2025-03-26T16:58:33.000Z</time>
      </trkpt>
      <trkpt lat="43.46039" lon="6.5937">
        <ele>-34.599998474121</ele>
        <time>2025-03-26T16:58:40.000Z</time>
      </trkpt>
      <trkpt lat="43.46038" lon="6.59373">
        <ele>-34.400001525879</ele>
        <time>2025-03-26T16:58:42.000Z</time>
      </trkpt>
      <trkpt lat="43.46037" lon="6.59385">
        <ele>-33.599998474121</ele>
        <time>2025-03-26T16:58:49.000Z</time>
      </trkpt>
      <trkpt lat="43.46037" lon="6.59387">
        <ele>-33.400001525879</ele>
        <time>2025-03-26T16:58:50.000Z</time>
      </trkpt>
      <trkpt lat="43.46034" lon="6.59396">
        <ele>-33</ele>
        <time>2025-03-26T16:58:56.000Z</time>
      </trkpt>
      <trkpt lat="43.46034" lon="6.59397">
        <ele>-32.799999237061</ele>
        <time>2025-03-26T16:58:57.000Z</time>
      </trkpt>
      <trkpt lat="43.46033" lon="6.594">
        <ele>-32.599998474121</ele>
        <time>2025-03-26T16:58:59.000Z</time>
      </trkpt>
      <trkpt lat="43.46032" lon="6.59402">
        <ele>-32.400001525879</ele>
        <time>2025-03-26T16:59:00.000Z</time>
      </trkpt>
      <trkpt lat="43.4603" lon="6.59406">
        <ele>-32</ele>
        <time>2025-03-26T16:59:03.000Z</time>
      </trkpt>
      <trkpt lat="43.46029" lon="6.59408">
        <ele>-32</ele>
        <time>2025-03-26T16:59:05.000Z</time>
      </trkpt>
      <trkpt lat="43.46026" lon="6.59419">
        <ele>-31.60000038147</ele>
        <time>2025-03-26T16:59:12.000Z</time>
      </trkpt>
      <trkpt lat="43.46025" lon="6.59421">
        <ele>24.39999961853</ele>
        <time>2025-03-26T16:59:13.000Z</time>
      </trkpt>
      <trkpt lat="43.46023" lon="6.59435">
        <ele>24.60000038147</ele>
        <time>2025-03-26T16:59:21.000Z</time>
      </trkpt>
      <trkpt lat="43.4602" lon="6.59452">
        <ele>25.200000762939</ele>
        <time>2025-03-26T16:59:31.000Z</time>
      </trkpt>
      <trkpt lat="43.46017" lon="6.59466">
        <ele>25.60000038147</ele>
        <time>2025-03-26T16:59:39.000Z</time>
      </trkpt>
      <trkpt lat="43.46016" lon="6.59468">
        <ele>25.60000038147</ele>
        <time>2025-03-26T16:59:40.000Z</time>
      </trkpt>
      <trkpt lat="43.46013" lon="6.5948">
        <ele>25.60000038147</ele>
        <time>2025-03-26T16:59:48.000Z</time>
      </trkpt>
      <trkpt lat="43.46008" lon="6.595">
        <ele>25.60000038147</ele>
        <time>2025-03-26T16:59:59.000Z</time>
      </trkpt>
      <trkpt lat="43.46005" lon="6.59513">
        <ele>26.200000762939</ele>
        <time>2025-03-26T17:00:07.000Z</time>
      </trkpt>
      <trkpt lat="43.46002" lon="6.59529">
        <ele>25.60000038147</ele>
        <time>2025-03-26T17:00:16.000Z</time>
      </trkpt>
      <trkpt lat="43.45998" lon="6.59545">
        <ele>25.60000038147</ele>
        <time>2025-03-26T17:00:26.000Z</time>
      </trkpt>
      <trkpt lat="43.45993" lon="6.59561">
        <ele>25.60000038147</ele>
        <time>2025-03-26T17:00:35.000Z</time>
      </trkpt>
      <trkpt lat="43.45991" lon="6.59571">
        <ele>25.200000762939</ele>
        <time>2025-03-26T17:00:40.000Z</time>
      </trkpt>
      <trkpt lat="43.4599" lon="6.59577">
        <ele>25</ele>
        <time>2025-03-26T17:00:43.000Z</time>
      </trkpt>
      <trkpt lat="43.45989" lon="6.59589">
        <ele>24.799999237061</ele>
        <time>2025-03-26T17:00:49.000Z</time>
      </trkpt>
      <trkpt lat="43.45987" lon="6.59601">
        <ele>24.39999961853</ele>
        <time>2025-03-26T17:00:56.000Z</time>
      </trkpt>
      <trkpt lat="43.45983" lon="6.59624">
        <ele>24.200000762939</ele>
        <time>2025-03-26T17:01:09.000Z</time>
      </trkpt>
      <trkpt lat="43.45977" lon="6.59644">
        <ele>24</ele>
        <time>2025-03-26T17:01:19.000Z</time>
      </trkpt>
      <trkpt lat="43.45972" lon="6.59666">
        <ele>23.799999237061</ele>
        <time>2025-03-26T17:01:30.000Z</time>
      </trkpt>
      <trkpt lat="43.45965" lon="6.59688">
        <ele>24.200000762939</ele>
        <time>2025-03-26T17:01:43.000Z</time>
      </trkpt>
      <trkpt lat="43.4596" lon="6.59707">
        <ele>24.60000038147</ele>
        <time>2025-03-26T17:01:54.000Z</time>
      </trkpt>
      <trkpt lat="43.45953" lon="6.59732">
        <ele>25</ele>
        <time>2025-03-26T17:02:06.000Z</time>
      </trkpt>
      <trkpt lat="43.45952" lon="6.59742">
        <ele>25.60000038147</ele>
        <time>2025-03-26T17:02:11.000Z</time>
      </trkpt>
      <trkpt lat="43.45949" lon="6.59756">
        <ele>26.200000762939</ele>
        <time>2025-03-26T17:02:18.000Z</time>
      </trkpt>
      <trkpt lat="43.45949" lon="6.59758">
        <ele>26.39999961853</ele>
        <time>2025-03-26T17:02:19.000Z</time>
      </trkpt>
      <trkpt lat="43.45948" lon="6.59759">
        <ele>26.799999237061</ele>
        <time>2025-03-26T17:02:20.000Z</time>
      </trkpt>
      <trkpt lat="43.45943" lon="6.59777">
        <ele>27</ele>
        <time>2025-03-26T17:02:30.000Z</time>
      </trkpt>
      <trkpt lat="43.45939" lon="6.59798">
        <ele>27.799999237061</ele>
        <time>2025-03-26T17:02:41.000Z</time>
      </trkpt>
      <trkpt lat="43.45939" lon="6.598">
        <ele>28</ele>
        <time>2025-03-26T17:02:42.000Z</time>
      </trkpt>
      <trkpt lat="43.45934" lon="6.59817">
        <ele>28.60000038147</ele>
        <time>2025-03-26T17:02:52.000Z</time>
      </trkpt>
      <trkpt lat="43.45932" lon="6.59824">
        <ele>28.799999237061</ele>
        <time>2025-03-26T17:02:56.000Z</time>
      </trkpt>
      <trkpt lat="43.45929" lon="6.59835">
        <ele>29.200000762939</ele>
        <time>2025-03-26T17:03:02.000Z</time>
      </trkpt>
      <trkpt lat="43.45925" lon="6.59855">
        <ele>29.60000038147</ele>
        <time>2025-03-26T17:03:13.000Z</time>
      </trkpt>
      <trkpt lat="43.45922" lon="6.59869">
        <ele>29.39999961853</ele>
        <time>2025-03-26T17:03:21.000Z</time>
      </trkpt>
      <trkpt lat="43.45918" lon="6.59883">
        <ele>28.799999237061</ele>
        <time>2025-03-26T17:03:30.000Z</time>
      </trkpt>
      <trkpt lat="43.45913" lon="6.59908">
        <ele>28.200000762939</ele>
        <time>2025-03-26T17:03:44.000Z</time>
      </trkpt>
      <trkpt lat="43.45912" lon="6.59922">
        <ele>27.799999237061</ele>
        <time>2025-03-26T17:03:52.000Z</time>
      </trkpt>
      <trkpt lat="43.45909" lon="6.59935">
        <ele>27.60000038147</ele>
        <time>2025-03-26T17:03:58.000Z</time>
      </trkpt>
      <trkpt lat="43.45906" lon="6.59953">
        <ele>26.799999237061</ele>
        <time>2025-03-26T17:04:09.000Z</time>
      </trkpt>
      <trkpt lat="43.45906" lon="6.59954">
        <ele>26.799999237061</ele>
        <time>2025-03-26T17:04:10.000Z</time>
      </trkpt>
      <trkpt lat="43.45901" lon="6.59977">
        <ele>26.200000762939</ele>
        <time>2025-03-26T17:04:22.000Z</time>
      </trkpt>
      <trkpt lat="43.45897" lon="6.59997">
        <ele>26</ele>
        <time>2025-03-26T17:04:34.000Z</time>
      </trkpt>
      <trkpt lat="43.45897" lon="6.59999">
        <ele>26</ele>
        <time>2025-03-26T17:04:35.000Z</time>
      </trkpt>
      <trkpt lat="43.45895" lon="6.60011">
        <ele>25.60000038147</ele>
        <time>2025-03-26T17:04:41.000Z</time>
      </trkpt>
      <trkpt lat="43.45893" lon="6.60021">
        <ele>25.39999961853</ele>
        <time>2025-03-26T17:04:46.000Z</time>
      </trkpt>
      <trkpt lat="43.45888" lon="6.60041">
        <ele>25.799999237061</ele>
        <time>2025-03-26T17:04:57.000Z</time>
      </trkpt>
      <trkpt lat="43.45888" lon="6.60043">
        <ele>25.799999237061</ele>
        <time>2025-03-26T17:04:58.000Z</time>
      </trkpt>
      <trkpt lat="43.45887" lon="6.6005">
        <ele>25.60000038147</ele>
        <time>2025-03-26T17:05:02.000Z</time>
      </trkpt>
      <trkpt lat="43.45886" lon="6.60063">
        <ele>25.60000038147</ele>
        <time>2025-03-26T17:05:09.000Z</time>
      </trkpt>
      <trkpt lat="43.45882" lon="6.60076">
        <ele>25.799999237061</ele>
        <time>2025-03-26T17:05:17.000Z</time>
      </trkpt>
      <trkpt lat="43.45879" lon="6.60092">
        <ele>26.39999961853</ele>
        <time>2025-03-26T17:05:26.000Z</time>
      </trkpt>
      <trkpt lat="43.45878" lon="6.60096">
        <ele>26.60000038147</ele>
        <time>2025-03-26T17:05:29.000Z</time>
      </trkpt>
      <trkpt lat="43.45875" lon="6.60105">
        <ele>27.39999961853</ele>
        <time>2025-03-26T17:05:34.000Z</time>
      </trkpt>
      <trkpt lat="43.45873" lon="6.60117">
        <ele>27.39999961853</ele>
        <time>2025-03-26T17:05:40.000Z</time>
      </trkpt>
      <trkpt lat="43.45872" lon="6.60119">
        <ele>27.60000038147</ele>
        <time>2025-03-26T17:05:41.000Z</time>
      </trkpt>
      <trkpt lat="43.45871" lon="6.60135">
        <ele>28.200000762939</ele>
        <time>2025-03-26T17:05:48.000Z</time>
      </trkpt>
      <trkpt lat="43.45869" lon="6.60153">
        <ele>28.799999237061</ele>
        <time>2025-03-26T17:05:56.000Z</time>
      </trkpt>
      <trkpt lat="43.45869" lon="6.6016">
        <ele>29</ele>
        <time>2025-03-26T17:05:59.000Z</time>
      </trkpt>
      <trkpt lat="43.45868" lon="6.6018">
        <ele>29.799999237061</ele>
        <time>2025-03-26T17:06:09.000Z</time>
      </trkpt>
      <trkpt lat="43.45868" lon="6.60182">
        <ele>29.799999237061</ele>
        <time>2025-03-26T17:06:10.000Z</time>
      </trkpt>
      <trkpt lat="43.45867" lon="6.60191">
        <ele>30</ele>
        <time>2025-03-26T17:06:15.000Z</time>
      </trkpt>
      <trkpt lat="43.45867" lon="6.60193">
        <ele>30</ele>
        <time>2025-03-26T17:06:16.000Z</time>
      </trkpt>
      <trkpt lat="43.45867" lon="6.602">
        <ele>30.39999961853</ele>
        <time>2025-03-26T17:06:20.000Z</time>
      </trkpt>
      <trkpt lat="43.45864" lon="6.60209">
        <ele>30.799999237061</ele>
        <time>2025-03-26T17:06:25.000Z</time>
      </trkpt>
      <trkpt lat="43.45863" lon="6.60213">
        <ele>31</ele>
        <time>2025-03-26T17:06:27.000Z</time>
      </trkpt>
      <trkpt lat="43.45863" lon="6.60232">
        <ele>31.60000038147</ele>
        <time>2025-03-26T17:06:37.000Z</time>
      </trkpt>
      <trkpt lat="43.45862" lon="6.60244">
        <ele>31.799999237061</ele>
        <time>2025-03-26T17:06:43.000Z</time>
      </trkpt>
      <trkpt lat="43.45861" lon="6.60251">
        <ele>32</ele>
        <time>2025-03-26T17:06:47.000Z</time>
      </trkpt>
      <trkpt lat="43.4586" lon="6.60271">
        <ele>32.799999237061</ele>
        <time>2025-03-26T17:06:57.000Z</time>
      </trkpt>
      <trkpt lat="43.4586" lon="6.60273">
        <ele>33</ele>
        <time>2025-03-26T17:06:58.000Z</time>
      </trkpt>
      <trkpt lat="43.45858" lon="6.60288">
        <ele>33.599998474121</ele>
        <time>2025-03-26T17:07:07.000Z</time>
      </trkpt>
      <trkpt lat="43.45858" lon="6.60304">
        <ele>34</ele>
        <time>2025-03-26T17:07:16.000Z</time>
      </trkpt>
      <trkpt lat="43.45856" lon="6.60309">
        <ele>34.200000762939</ele>
        <time>2025-03-26T17:07:19.000Z</time>
      </trkpt>
      <trkpt lat="43.45852" lon="6.60324">
        <ele>34.200000762939</ele>
        <time>2025-03-26T17:07:28.000Z</time>
      </trkpt>
      <trkpt lat="43.45854" lon="6.60339">
        <ele>34.400001525879</ele>
        <time>2025-03-26T17:07:36.000Z</time>
      </trkpt>
      <trkpt lat="43.45856" lon="6.60352">
        <ele>34.200000762939</ele>
        <time>2025-03-26T17:07:44.000Z</time>
      </trkpt>
      <trkpt lat="43.45855" lon="6.60367">
        <ele>34.200000762939</ele>
        <time>2025-03-26T17:07:52.000Z</time>
      </trkpt>
      <trkpt lat="43.45856" lon="6.60389">
        <ele>34.200000762939</ele>
        <time>2025-03-26T17:08:03.000Z</time>
      </trkpt>
      <trkpt lat="43.45856" lon="6.60403">
        <ele>34</ele>
        <time>2025-03-26T17:08:10.000Z</time>
      </trkpt>
      <trkpt lat="43.45856" lon="6.60409">
        <ele>33.599998474121</ele>
        <time>2025-03-26T17:08:13.000Z</time>
      </trkpt>
      <trkpt lat="43.45855" lon="6.60419">
        <ele>33.400001525879</ele>
        <time>2025-03-26T17:08:17.000Z</time>
      </trkpt>
      <trkpt lat="43.45855" lon="6.6043">
        <ele>33</ele>
        <time>2025-03-26T17:08:22.000Z</time>
      </trkpt>
      <trkpt lat="43.45855" lon="6.60433">
        <ele>32.799999237061</ele>
        <time>2025-03-26T17:08:24.000Z</time>
      </trkpt>
      <trkpt lat="43.45855" lon="6.60448">
        <ele>32.400001525879</ele>
        <time>2025-03-26T17:08:32.000Z</time>
      </trkpt>
      <trkpt lat="43.45855" lon="6.60452">
        <ele>32.200000762939</ele>
        <time>2025-03-26T17:08:35.000Z</time>
      </trkpt>
      <trkpt lat="43.45854" lon="6.60458">
        <ele>32.200000762939</ele>
        <time>2025-03-26T17:08:38.000Z</time>
      </trkpt>
      <trkpt lat="43.45855" lon="6.60461">
        <ele>32.200000762939</ele>
        <time>2025-03-26T17:08:39.000Z</time>
      </trkpt>
      <trkpt lat="43.45855" lon="6.60466">
        <ele>31.799999237061</ele>
        <time>2025-03-26T17:08:42.000Z</time>
      </trkpt>
      <trkpt lat="43.45856" lon="6.60469">
        <ele>31.60000038147</ele>
        <time>2025-03-26T17:08:44.000Z</time>
      </trkpt>
      <trkpt lat="43.45856" lon="6.60471">
        <ele>31.60000038147</ele>
        <time>2025-03-26T17:08:45.000Z</time>
      </trkpt>
      <trkpt lat="43.45856" lon="6.60483">
        <ele>31.200000762939</ele>
        <time>2025-03-26T17:08:51.000Z</time>
      </trkpt>
      <trkpt lat="43.45859" lon="6.60498">
        <ele>31.39999961853</ele>
        <time>2025-03-26T17:08:58.000Z</time>
      </trkpt>
      <trkpt lat="43.45859" lon="6.6051">
        <ele>31</ele>
        <time>2025-03-26T17:09:03.000Z</time>
      </trkpt>
      <trkpt lat="43.4586" lon="6.60514">
        <ele>30.799999237061</ele>
        <time>2025-03-26T17:09:05.000Z</time>
      </trkpt>
      <trkpt lat="43.45862" lon="6.6053">
        <ele>30.799999237061</ele>
        <time>2025-03-26T17:09:12.000Z</time>
      </trkpt>
      <trkpt lat="43.45862" lon="6.60542">
        <ele>30.60000038147</ele>
        <time>2025-03-26T17:09:18.000Z</time>
      </trkpt>
      <trkpt lat="43.45864" lon="6.60562">
        <ele>31.799999237061</ele>
        <time>2025-03-26T17:09:28.000Z</time>
      </trkpt>
      <trkpt lat="43.45864" lon="6.60568">
        <ele>32</ele>
        <time>2025-03-26T17:09:31.000Z</time>
      </trkpt>
      <trkpt lat="43.45865" lon="6.60572">
        <ele>32.200000762939</ele>
        <time>2025-03-26T17:09:33.000Z</time>
      </trkpt>
      <trkpt lat="43.45866" lon="6.60574">
        <ele>32.200000762939</ele>
        <time>2025-03-26T17:09:34.000Z</time>
      </trkpt>
      <trkpt lat="43.45868" lon="6.60583">
        <ele>32.200000762939</ele>
        <time>2025-03-26T17:09:38.000Z</time>
      </trkpt>
      <trkpt lat="43.45868" lon="6.60585">
        <ele>32.200000762939</ele>
        <time>2025-03-26T17:09:39.000Z</time>
      </trkpt>
      <trkpt lat="43.45868" lon="6.60594">
        <ele>32.200000762939</ele>
        <time>2025-03-26T17:09:43.000Z</time>
      </trkpt>
      <trkpt lat="43.4587" lon="6.60608">
        <ele>32.400001525879</ele>
        <time>2025-03-26T17:09:51.000Z</time>
      </trkpt>
      <trkpt lat="43.45871" lon="6.6061">
        <ele>32.400001525879</ele>
        <time>2025-03-26T17:09:52.000Z</time>
      </trkpt>
      <trkpt lat="43.45874" lon="6.60623">
        <ele>32.599998474121</ele>
        <time>2025-03-26T17:10:00.000Z</time>
      </trkpt>
      <trkpt lat="43.45874" lon="6.60633">
        <ele>32.799999237061</ele>
        <time>2025-03-26T17:10:05.000Z</time>
      </trkpt>
      <trkpt lat="43.45874" lon="6.60634">
        <ele>33</ele>
        <time>2025-03-26T17:10:06.000Z</time>
      </trkpt>
      <trkpt lat="43.45878" lon="6.60655">
        <ele>33.799999237061</ele>
        <time>2025-03-26T17:10:17.000Z</time>
      </trkpt>
      <trkpt lat="43.45879" lon="6.6067">
        <ele>34.400001525879</ele>
        <time>2025-03-26T17:10:25.000Z</time>
      </trkpt>
      <trkpt lat="43.45885" lon="6.60689">
        <ele>33.799999237061</ele>
        <time>2025-03-26T17:10:35.000Z</time>
      </trkpt>
      <trkpt lat="43.45886" lon="6.60695">
        <ele>33.799999237061</ele>
        <time>2025-03-26T17:10:38.000Z</time>
      </trkpt>
      <trkpt lat="43.45887" lon="6.60702">
        <ele>33.599998474121</ele>
        <time>2025-03-26T17:10:42.000Z</time>
      </trkpt>
      <trkpt lat="43.4589" lon="6.60715">
        <ele>34</ele>
        <time>2025-03-26T17:10:49.000Z</time>
      </trkpt>
      <trkpt lat="43.45893" lon="6.60736">
        <ele>34.200000762939</ele>
        <time>2025-03-26T17:10:59.000Z</time>
      </trkpt>
      <trkpt lat="43.45896" lon="6.60743">
        <ele>34</ele>
        <time>2025-03-26T17:11:03.000Z</time>
      </trkpt>
      <trkpt lat="43.45897" lon="6.60746">
        <ele>34</ele>
        <time>2025-03-26T17:11:05.000Z</time>
      </trkpt>
      <trkpt lat="43.459" lon="6.60763">
        <ele>33.599998474121</ele>
        <time>2025-03-26T17:11:14.000Z</time>
      </trkpt>
      <trkpt lat="43.45907" lon="6.60784">
        <ele>33.799999237061</ele>
        <time>2025-03-26T17:11:24.000Z</time>
      </trkpt>
      <trkpt lat="43.4591" lon="6.60797">
        <ele>33.799999237061</ele>
        <time>2025-03-26T17:11:31.000Z</time>
      </trkpt>
      <trkpt lat="43.45915" lon="6.60812">
        <ele>33.599998474121</ele>
        <time>2025-03-26T17:11:39.000Z</time>
      </trkpt>
      <trkpt lat="43.45917" lon="6.60815">
        <ele>33.599998474121</ele>
        <time>2025-03-26T17:11:41.000Z</time>
      </trkpt>
      <trkpt lat="43.45922" lon="6.60825">
        <ele>33.599998474121</ele>
        <time>2025-03-26T17:11:46.000Z</time>
      </trkpt>
      <trkpt lat="43.45924" lon="6.60837">
        <ele>33.400001525879</ele>
        <time>2025-03-26T17:11:52.000Z</time>
      </trkpt>
      <trkpt lat="43.45924" lon="6.60839">
        <ele>33.400001525879</ele>
        <time>2025-03-26T17:11:53.000Z</time>
      </trkpt>
      <trkpt lat="43.45927" lon="6.60857">
        <ele>34.200000762939</ele>
        <time>2025-03-26T17:12:02.000Z</time>
      </trkpt>
      <trkpt lat="43.45931" lon="6.60872">
        <ele>34.799999237061</ele>
        <time>2025-03-26T17:12:10.000Z</time>
      </trkpt>
      <trkpt lat="43.45931" lon="6.60874">
        <ele>35</ele>
        <time>2025-03-26T17:12:11.000Z</time>
      </trkpt>
      <trkpt lat="43.45933" lon="6.60885">
        <ele>35</ele>
        <time>2025-03-26T17:12:17.000Z</time>
      </trkpt>
      <trkpt lat="43.45933" lon="6.60889">
        <ele>35.200000762939</ele>
        <time>2025-03-26T17:12:19.000Z</time>
      </trkpt>
      <trkpt lat="43.45935" lon="6.60895">
        <ele>36</ele>
        <time>2025-03-26T17:12:22.000Z</time>
      </trkpt>
      <trkpt lat="43.45939" lon="6.60907">
        <ele>36.400001525879</ele>
        <time>2025-03-26T17:12:29.000Z</time>
      </trkpt>
      <trkpt lat="43.45942" lon="6.60922">
        <ele>37</ele>
        <time>2025-03-26T17:12:37.000Z</time>
      </trkpt>
      <trkpt lat="43.45942" lon="6.60924">
        <ele>37</ele>
        <time>2025-03-26T17:12:38.000Z</time>
      </trkpt>
      <trkpt lat="43.45946" lon="6.60936">
        <ele>38</ele>
        <time>2025-03-26T17:12:46.000Z</time>
      </trkpt>
      <trkpt lat="43.45945" lon="6.60938">
        <ele>38.200000762939</ele>
        <time>2025-03-26T17:12:47.000Z</time>
      </trkpt>
      <trkpt lat="43.45946" lon="6.60948">
        <ele>38.599998474121</ele>
        <time>2025-03-26T17:12:55.000Z</time>
      </trkpt>
      <trkpt lat="43.45948" lon="6.60959">
        <ele>39</ele>
        <time>2025-03-26T17:13:03.000Z</time>
      </trkpt>
      <trkpt lat="43.45949" lon="6.60963">
        <ele>39.400001525879</ele>
        <time>2025-03-26T17:13:06.000Z</time>
      </trkpt>
      <trkpt lat="43.45948" lon="6.6097">
        <ele>39.599998474121</ele>
        <time>2025-03-26T17:13:11.000Z</time>
      </trkpt>
      <trkpt lat="43.45947" lon="6.60972">
        <ele>39.599998474121</ele>
        <time>2025-03-26T17:13:13.000Z</time>
      </trkpt>
      <trkpt lat="43.45941" lon="6.60977">
        <ele>39.400001525879</ele>
        <time>2025-03-26T17:13:18.000Z</time>
      </trkpt>
      <trkpt lat="43.4593" lon="6.60983">
        <ele>39.200000762939</ele>
        <time>2025-03-26T17:13:26.000Z</time>
      </trkpt>
      <trkpt lat="43.45919" lon="6.6099">
        <ele>38.599998474121</ele>
        <time>2025-03-26T17:13:35.000Z</time>
      </trkpt>
      <trkpt lat="43.45913" lon="6.60993">
        <ele>38.599998474121</ele>
        <time>2025-03-26T17:13:39.000Z</time>
      </trkpt>
      <trkpt lat="43.45911" lon="6.60994">
        <ele>38.200000762939</ele>
        <time>2025-03-26T17:13:41.000Z</time>
      </trkpt>
      <trkpt lat="43.45906" lon="6.60996">
        <ele>38</ele>
        <time>2025-03-26T17:13:45.000Z</time>
      </trkpt>
      <trkpt lat="43.45892" lon="6.61004">
        <ele>37</ele>
        <time>2025-03-26T17:13:56.000Z</time>
      </trkpt>
      <trkpt lat="43.45883" lon="6.61008">
        <ele>35.799999237061</ele>
        <time>2025-03-26T17:14:04.000Z</time>
      </trkpt>
      <trkpt lat="43.45871" lon="6.61016">
        <ele>35.400001525879</ele>
        <time>2025-03-26T17:14:14.000Z</time>
      </trkpt>
      <trkpt lat="43.45867" lon="6.6102">
        <ele>35.200000762939</ele>
        <time>2025-03-26T17:14:17.000Z</time>
      </trkpt>
      <trkpt lat="43.45863" lon="6.6102">
        <ele>35</ele>
        <time>2025-03-26T17:14:20.000Z</time>
      </trkpt>
      <trkpt lat="43.4586" lon="6.6102">
        <ele>34.799999237061</ele>
        <time>2025-03-26T17:14:22.000Z</time>
      </trkpt>
      <trkpt lat="43.45848" lon="6.61016">
        <ele>34.200000762939</ele>
        <time>2025-03-26T17:14:30.000Z</time>
      </trkpt>
      <trkpt lat="43.45839" lon="6.61011">
        <ele>34</ele>
        <time>2025-03-26T17:14:37.000Z</time>
      </trkpt>
      <trkpt lat="43.45837" lon="6.61011">
        <ele>33.799999237061</ele>
        <time>2025-03-26T17:14:38.000Z</time>
      </trkpt>
      <trkpt lat="43.45822" lon="6.61006">
        <ele>33</ele>
        <time>2025-03-26T17:14:47.000Z</time>
      </trkpt>
      <trkpt lat="43.4581" lon="6.61007">
        <ele>32.799999237061</ele>
        <time>2025-03-26T17:14:54.000Z</time>
      </trkpt>
      <trkpt lat="43.45809" lon="6.61007">
        <ele>32.799999237061</ele>
        <time>2025-03-26T17:14:55.000Z</time>
      </trkpt>
      <trkpt lat="43.45795" lon="6.61009">
        <ele>32.200000762939</ele>
        <time>2025-03-26T17:15:03.000Z</time>
      </trkpt>
      <trkpt lat="43.45787" lon="6.61015">
        <ele>32.200000762939</ele>
        <time>2025-03-26T17:15:10.000Z</time>
      </trkpt>
      <trkpt lat="43.45786" lon="6.61015">
        <ele>32.200000762939</ele>
        <time>2025-03-26T17:15:14.000Z</time>
      </trkpt>
      <trkpt lat="43.45786" lon="6.61015">
        <ele>32.200000762939</ele>
        <time>2025-03-26T17:15:15.000Z</time>
      </trkpt>
      <trkpt lat="43.45782" lon="6.61018">
        <ele>32.400001525879</ele>
        <time>2025-03-26T17:15:21.000Z</time>
      </trkpt>
      <trkpt lat="43.45776" lon="6.61026">
        <ele>32.400001525879</ele>
        <time>2025-03-26T17:15:28.000Z</time>
      </trkpt>
      <trkpt lat="43.45766" lon="6.61041">
        <ele>32</ele>
        <time>2025-03-26T17:15:39.000Z</time>
      </trkpt>
      <trkpt lat="43.45754" lon="6.61056">
        <ele>32.400001525879</ele>
        <time>2025-03-26T17:15:50.000Z</time>
      </trkpt>
      <trkpt lat="43.45742" lon="6.61067">
        <ele>32.400001525879</ele>
        <time>2025-03-26T17:16:00.000Z</time>
      </trkpt>
      <trkpt lat="43.45733" lon="6.61073">
        <ele>32.400001525879</ele>
        <time>2025-03-26T17:16:08.000Z</time>
      </trkpt>
      <trkpt lat="43.45723" lon="6.61079">
        <ele>32.799999237061</ele>
        <time>2025-03-26T17:16:15.000Z</time>
      </trkpt>
      <trkpt lat="43.4571" lon="6.61081">
        <ele>32.400001525879</ele>
        <time>2025-03-26T17:16:23.000Z</time>
      </trkpt>
      <trkpt lat="43.45709" lon="6.6108">
        <ele>32.599998474121</ele>
        <time>2025-03-26T17:16:24.000Z</time>
      </trkpt>
      <trkpt lat="43.45695" lon="6.61078">
        <ele>33</ele>
        <time>2025-03-26T17:16:33.000Z</time>
      </trkpt>
      <trkpt lat="43.45683" lon="6.61076">
        <ele>32.799999237061</ele>
        <time>2025-03-26T17:16:43.000Z</time>
      </trkpt>
      <trkpt lat="43.45671" lon="6.61077">
        <ele>33</ele>
        <time>2025-03-26T17:16:53.000Z</time>
      </trkpt>
      <trkpt lat="43.45655" lon="6.61077">
        <ele>33.200000762939</ele>
        <time>2025-03-26T17:17:05.000Z</time>
      </trkpt>
      <trkpt lat="43.45646" lon="6.61082">
        <ele>33.599998474121</ele>
        <time>2025-03-26T17:17:13.000Z</time>
      </trkpt>
      <trkpt lat="43.45637" lon="6.61091">
        <ele>34</ele>
        <time>2025-03-26T17:17:21.000Z</time>
      </trkpt>
      <trkpt lat="43.45636" lon="6.61093">
        <ele>33.799999237061</ele>
        <time>2025-03-26T17:17:22.000Z</time>
      </trkpt>
      <trkpt lat="43.45627" lon="6.61106">
        <ele>34</ele>
        <time>2025-03-26T17:17:32.000Z</time>
      </trkpt>
      <trkpt lat="43.45625" lon="6.61111">
        <ele>33.799999237061</ele>
        <time>2025-03-26T17:17:36.000Z</time>
      </trkpt>
      <trkpt lat="43.45624" lon="6.61115">
        <ele>33.799999237061</ele>
        <time>2025-03-26T17:17:39.000Z</time>
      </trkpt>
      <trkpt lat="43.45618" lon="6.61125">
        <ele>34</ele>
        <time>2025-03-26T17:17:47.000Z</time>
      </trkpt>
      <trkpt lat="43.45601" lon="6.61153">
        <ele>34.799999237061</ele>
        <time>2025-03-26T17:18:05.000Z</time>
      </trkpt>
      <trkpt lat="43.45581" lon="6.61183">
        <ele>35.400001525879</ele>
        <time>2025-03-26T17:18:27.000Z</time>
      </trkpt>
      <trkpt lat="43.4557" lon="6.61191">
        <ele>35.599998474121</ele>
        <time>2025-03-26T17:18:36.000Z</time>
      </trkpt>
      <trkpt lat="43.45559" lon="6.61197">
        <ele>35.200000762939</ele>
        <time>2025-03-26T17:18:44.000Z</time>
      </trkpt>
      <trkpt lat="43.45549" lon="6.612">
        <ele>35</ele>
        <time>2025-03-26T17:18:50.000Z</time>
      </trkpt>
      <trkpt lat="43.45547" lon="6.61199">
        <ele>35</ele>
        <time>2025-03-26T17:18:52.000Z</time>
      </trkpt>
      <trkpt lat="43.45542" lon="6.61199">
        <ele>35.200000762939</ele>
        <time>2025-03-26T17:18:55.000Z</time>
      </trkpt>
      <trkpt lat="43.45542" lon="6.61199">
        <ele>35.200000762939</ele>
        <time>2025-03-26T17:18:56.000Z</time>
      </trkpt>
      <trkpt lat="43.45535" lon="6.61198">
        <ele>35.400001525879</ele>
        <time>2025-03-26T17:19:01.000Z</time>
      </trkpt>
      <trkpt lat="43.45523" lon="6.61201">
        <ele>35.400001525879</ele>
        <time>2025-03-26T17:19:09.000Z</time>
      </trkpt>
      <trkpt lat="43.45508" lon="6.61204">
        <ele>35.599998474121</ele>
        <time>2025-03-26T17:19:18.000Z</time>
      </trkpt>
      <trkpt lat="43.45479" lon="6.61207">
        <ele>36.200000762939</ele>
        <time>2025-03-26T17:19:38.000Z</time>
      </trkpt>
      <trkpt lat="43.45461" lon="6.61203">
        <ele>36</ele>
        <time>2025-03-26T17:19:50.000Z</time>
      </trkpt>
      <trkpt lat="43.45448" lon="6.612">
        <ele>36.599998474121</ele>
        <time>2025-03-26T17:19:58.000Z</time>
      </trkpt>
      <trkpt lat="43.45435" lon="6.61192">
        <ele>37</ele>
        <time>2025-03-26T17:20:09.000Z</time>
      </trkpt>
      <trkpt lat="43.45431" lon="6.6118">
        <ele>14.7</ele>
      </trkpt>
      <trkpt lat="43.45422" lon="6.61179">
        <ele>13.8</ele>
        <time>2025-03-26T17:20:20.000Z</time>
      </trkpt>
      <trkpt lat="43.45408" lon="6.61189">
        <ele>37.400001525879</ele>
        <time>2025-03-26T17:20:28.000Z</time>
      </trkpt>
      <trkpt lat="43.45407" lon="6.6119">
        <ele>37.200000762939</ele>
        <time>2025-03-26T17:20:32.000Z</time>
      </trkpt>
      <trkpt lat="43.45407" lon="6.61189">
        <ele>37.400001525879</ele>
        <time>2025-03-26T17:20:33.000Z</time>
      </trkpt>
      <trkpt lat="43.45407" lon="6.61189">
        <ele>37.400001525879</ele>
        <time>2025-03-26T17:20:34.000Z</time>
      </trkpt>
      <trkpt lat="43.45406" lon="6.6119">
        <ele>37.599998474121</ele>
        <time>2025-03-26T17:20:40.000Z</time>
      </trkpt>
      <trkpt lat="43.45405" lon="6.61199">
        <ele>37.799999237061</ele>
        <time>2025-03-26T17:20:46.000Z</time>
      </trkpt>
      <trkpt lat="43.45402" lon="6.61213">
        <ele>38</ele>
        <time>2025-03-26T17:20:54.000Z</time>
      </trkpt>
      <trkpt lat="43.45403" lon="6.61229">
        <ele>37.799999237061</ele>
        <time>2025-03-26T17:21:03.000Z</time>
      </trkpt>
      <trkpt lat="43.45407" lon="6.61245">
        <ele>37.799999237061</ele>
        <time>2025-03-26T17:21:13.000Z</time>
      </trkpt>
      <trkpt lat="43.45393" lon="6.61254">
        <ele>14.2</ele>
        <time>2025-03-26T17:21:19.000Z</time>
      </trkpt>
      <trkpt lat="43.45395" lon="6.61283">
        <ele>38.400001525879</ele>
        <time>2025-03-26T17:21:40.000Z</time>
      </trkpt>
      <trkpt lat="43.4531" lon="6.61299">
        <ele>12.8</ele>
      </trkpt>
      <trkpt lat="43.45278" lon="6.61366">
        <ele>13.5</ele>
      </trkpt>
      <trkpt lat="43.45249" lon="6.61391">
        <ele>13.1</ele>
      </trkpt>
      <trkpt lat="43.45241" lon="6.6144">
        <ele>12.8</ele>
      </trkpt>
      <trkpt lat="43.45209" lon="6.6148">
        <ele>12.7</ele>
      </trkpt>
      <trkpt lat="43.45177" lon="6.61505">
        <ele>11.7</ele>
      </trkpt>
      <trkpt lat="43.45139" lon="6.6149">
        <ele>13.4</ele>
      </trkpt>
      <trkpt lat="43.45104" lon="6.61528">
        <ele>12.8</ele>
      </trkpt>
      <trkpt lat="43.45077" lon="6.61514">
        <ele>13.5</ele>
      </trkpt>
      <trkpt lat="43.45052" lon="6.61527">
        <ele>11.9</ele>
      </trkpt>
      <trkpt lat="43.45046" lon="6.61578">
        <ele>13.2</ele>
      </trkpt>
      <trkpt lat="43.45038" lon="6.61608">
        <ele>15.1</ele>
      </trkpt>
      <trkpt lat="43.45065" lon="6.61629">
        <ele>13.6</ele>
      </trkpt>
      <trkpt lat="43.45075" lon="6.61653">
        <ele>13.4</ele>
      </trkpt>
      <trkpt lat="43.4507" lon="6.6167">
        <ele>13.8</ele>
      </trkpt>
      <trkpt lat="43.45027" lon="6.61776">
        <ele>12.1</ele>
      </trkpt>
      <trkpt lat="43.45004" lon="6.61807">
        <ele>12</ele>
      </trkpt>
      <trkpt lat="43.44938" lon="6.61852">
        <ele>12.8</ele>
      </trkpt>
    </trkseg>
  </trk>
</gpx>